Time,TemperatureF,DewpointF,PressureIn,WindDirection,WindDirectionDegrees,WindSpeedMPH,WindSpeedGustMPH,Humidity,HourlyPrecipIn,Conditions,Clouds,dailyrainin,SoftwareType,DateUTC
2013-08-26 00:00:00,68.3,-23.6,30.38,NE,54,0.0,0.0,2,0.00,CLR,,0.00,WeatherDisplay:10.37,2013-08-26 04:00:00,
2013-08-26 00:01:00,68.1,-23.7,30.38,NE,54,0.0,0.0,2,0.00,CLR,,0.00,WeatherDisplay:10.37,2013-08-26 04:01:00,
2013-08-26 00:06:00,67.2,-16.5,30.38,NE,54,0.0,0.0,3,0.00,CLR,,0.00,WeatherDisplay:10.37,2013-08-26 04:06:00,
2013-08-26 00:11:00,65.9,-7.1,30.38,NE,54,0.0,0.0,5,0.00,CLR,,0.00,WeatherDisplay:10.37,2013-08-26 04:11:00,
2013-08-26 00:12:00,65.2,-7.6,30.38,NE,54,0.0,0.0,5,0.00,CLR,,0.00,WeatherDisplay:10.37,2013-08-26 04:12:00,
2013-08-26 00:16:00,64.4,-4.4,30.38,NE,54,0.0,0.0,6,0.00,CLR,,0.00,WeatherDisplay:10.37,2013-08-26 04:16:00,
2013-08-26 00:17:00,64.4,-1.2,30.38,NE,54,0.0,0.0,7,0.00,CLR,,0.00,WeatherDisplay:10.37,2013-08-26 04:17:00,
2013-08-26 00:18:00,64.4,-1.2,30.38,NE,54,0.0,0.0,7,0.00,CLR,,0.00,WeatherDisplay:10.37,2013-08-26 04:18:00,
2013-08-26 00:21:00,64.0,1.4,30.38,NE,54,0.0,0.0,8,0.00,CLR,,0.00,WeatherDisplay:10.37,2013-08-26 04:21:00,
2013-08-26 00:22:00,63.9,1.3,30.38,NE,54,0.0,0.0,8,0.00,CLR,,0.00,WeatherDisplay:10.37,2013-08-26 04:22:00,
2013-08-26 00:23:00,64.6,1.8,30.38,NE,54,0.0,0.0,8,0.00,CLR,,0.00,WeatherDisplay:10.37,2013-08-26 04:23:00,
2013-08-26 00:26:00,65.0,-0.7,30.38,NE,54,0.0,0.0,7,0.00,CLR,,0.00,WeatherDisplay:10.37,2013-08-26 04:26:00,
2013-08-26 00:27:00,65.5,-0.3,30.38,NE,54,0.0,0.0,7,0.00,CLR,,0.00,WeatherDisplay:10.37,2013-08-26 04:27:00,
2013-08-26 00:28:00,65.7,-0.2,30.38,NE,54,0.0,0.0,7,0.00,CLR,,0.00,WeatherDisplay:10.37,2013-08-26 04:28:00,
2013-08-26 00:32:00,65.3,2.4,30.38,NE,54,0.0,0.0,8,0.00,CLR,,0.00,WeatherDisplay:10.37,2013-08-26 04:32:00,
2013-08-26 00:33:00,64.8,4.5,30.38,NE,54,0.0,0.0,9,0.00,CLR,,0.00,WeatherDisplay:10.37,2013-08-26 04:33:00,
2013-08-26 00:34:00,65.0,7.0,30.38,NE,54,0.0,0.0,10,0.00,CLR,,0.00,WeatherDisplay:10.37,2013-08-26 04:34:00,
2013-08-26 00:37:00,64.4,6.6,30.38,NE,54,0.0,0.0,10,0.00,CLR,,0.00,WeatherDisplay:10.37,2013-08-26 04:37:00,
2013-08-26 00:38:00,64.7,6.8,30.38,NE,54,0.0,0.0,10,0.00,CLR,,0.00,WeatherDisplay:10.37,2013-08-26 04:38:00,
2013-08-26 00:39:00,64.9,4.6,30.38,NE,54,0.0,0.0,9,0.00,CLR,,0.00,WeatherDisplay:10.37,2013-08-26 04:39:00,
2013-08-26 00:42:00,65.0,-0.7,30.38,NE,54,0.0,0.0,7,0.00,CLR,,0.00,WeatherDisplay:10.37,2013-08-26 04:42:00,
2013-08-26 00:43:00,65.2,-0.6,30.38,NE,54,0.0,0.0,7,0.00,CLR,,0.00,WeatherDisplay:10.37,2013-08-26 04:43:00,
2013-08-26 00:44:00,65.6,-0.3,30.38,NE,54,0.0,0.0,7,0.00,CLR,,0.00,WeatherDisplay:10.37,2013-08-26 04:44:00,
2013-08-26 00:48:00,66.2,-3.1,30.38,NE,54,0.0,0.0,6,0.00,CLR,,0.00,WeatherDisplay:10.37,2013-08-26 04:48:00,
2013-08-26 00:49:00,66.1,-3.2,30.38,NE,54,0.0,0.0,6,0.00,CLR,,0.00,WeatherDisplay:10.37,2013-08-26 04:49:00,
2013-08-26 00:53:00,65.8,-0.1,30.38,NE,54,0.0,0.0,7,0.00,CLR,,0.00,WeatherDisplay:10.37,2013-08-26 04:53:00,
2013-08-26 00:54:00,65.2,-0.6,30.38,NE,54,0.0,0.0,7,0.00,CLR,,0.00,WeatherDisplay:10.37,2013-08-26 04:54:00,
2013-08-26 00:58:00,64.7,1.9,30.38,NE,54,0.0,0.0,8,0.00,CLR,,0.00,WeatherDisplay:10.37,2013-08-26 04:58:00,
2013-08-26 00:59:00,64.8,-0.9,30.38,NE,54,0.0,0.0,7,0.00,CLR,,0.00,WeatherDisplay:10.37,2013-08-26 04:59:00,
2013-08-26 01:03:00,65.2,-0.6,30.38,NE,54,0.0,0.0,7,0.00,CLR,,0.00,WeatherDisplay:10.37,2013-08-26 05:03:00,
2013-08-26 01:04:00,65.1,-3.9,30.38,NE,54,0.0,0.0,6,0.00,CLR,,0.00,WeatherDisplay:10.37,2013-08-26 05:04:00,
2013-08-26 01:08:00,64.6,-4.3,30.38,NE,54,0.0,0.0,6,0.00,CLR,,0.00,WeatherDisplay:10.37,2013-08-26 05:08:00,
2013-08-26 01:09:00,65.0,-4.0,30.38,NE,54,0.0,0.0,6,0.00,CLR,,0.00,WeatherDisplay:10.37,2013-08-26 05:09:00,
2013-08-26 01:13:00,64.4,-1.2,30.38,NE,54,0.0,0.0,7,0.00,CLR,,0.00,WeatherDisplay:10.37,2013-08-26 05:13:00,
2013-08-26 01:14:00,64.1,-1.4,30.38,NE,54,0.0,0.0,7,0.00,CLR,,0.00,WeatherDisplay:10.37,2013-08-26 05:14:00,
2013-08-26 01:19:00,63.2,5.6,30.38,NE,54,0.0,0.0,10,0.00,CLR,,0.00,WeatherDisplay:10.37,2013-08-26 05:19:00,
2013-08-26 01:20:00,63.5,5.9,30.38,NE,54,0.0,0.0,10,0.00,CLR,,0.00,WeatherDisplay:10.37,2013-08-26 05:20:00,
2013-08-26 01:24:00,63.9,6.2,30.38,NE,54,0.0,0.0,10,0.00,CLR,,0.00,WeatherDisplay:10.37,2013-08-26 05:24:00,
2013-08-26 01:25:00,64.2,6.4,30.38,NE,54,0.0,0.0,10,0.00,CLR,,0.00,WeatherDisplay:10.37,2013-08-26 05:25:00,
2013-08-26 01:29:00,64.0,1.4,30.38,NE,54,0.0,0.0,8,0.00,CLR,,0.00,WeatherDisplay:10.37,2013-08-26 05:29:00,
2013-08-26 01:30:00,64.1,1.5,30.38,NE,54,0.0,0.0,8,0.00,CLR,,0.00,WeatherDisplay:10.37,2013-08-26 05:30:00,
2013-08-26 01:34:00,64.4,4.2,30.38,NE,54,0.0,0.0,9,0.00,CLR,,0.00,WeatherDisplay:10.37,2013-08-26 05:34:00,
2013-08-26 01:35:00,64.4,1.7,30.38,NE,54,0.0,0.0,8,0.00,CLR,,0.00,WeatherDisplay:10.37,2013-08-26 05:35:00,
2013-08-26 01:39:00,64.5,-1.1,30.38,NE,54,0.0,0.0,7,0.00,CLR,,0.00,WeatherDisplay:10.37,2013-08-26 05:39:00,
2013-08-26 01:40:00,64.4,-1.2,30.37,NE,54,0.0,0.0,7,0.00,CLR,,0.00,WeatherDisplay:10.37,2013-08-26 05:40:00,
2013-08-26 01:44:00,64.8,-4.1,30.37,NE,54,0.0,0.0,6,0.00,CLR,,0.00,WeatherDisplay:10.37,2013-08-26 05:44:00,
2013-08-26 01:45:00,64.9,-4.0,30.37,NE,54,0.0,0.0,6,0.00,CLR,,0.00,WeatherDisplay:10.37,2013-08-26 05:45:00,
2013-08-26 01:49:00,64.9,-4.0,30.37,NE,54,0.0,0.0,6,0.00,CLR,,0.00,WeatherDisplay:10.37,2013-08-26 05:49:00,
2013-08-26 01:50:00,64.7,-4.2,30.37,NE,54,0.0,0.0,6,0.00,CLR,,0.00,WeatherDisplay:10.37,2013-08-26 05:50:00,
2013-08-26 01:51:00,65.0,-4.0,30.37,NE,54,0.0,0.0,6,0.00,CLR,,0.00,WeatherDisplay:10.37,2013-08-26 05:51:00,
2013-08-26 01:55:00,64.8,-4.1,30.37,NE,54,0.0,0.0,6,0.00,CLR,,0.00,WeatherDisplay:10.37,2013-08-26 05:55:00,
2013-08-26 01:56:00,65.0,-4.0,30.37,NE,54,0.0,0.0,6,0.00,CLR,,0.00,WeatherDisplay:10.37,2013-08-26 05:56:00,
2013-08-26 02:00:00,65.4,-7.5,30.37,NE,54,0.0,0.0,5,0.00,CLR,,0.00,WeatherDisplay:10.37,2013-08-26 06:00:00,
2013-08-26 02:01:00,65.4,-7.5,30.37,NE,54,0.0,0.0,5,0.00,CLR,,0.00,WeatherDisplay:10.37,2013-08-26 06:01:00,
2013-08-26 02:05:00,65.2,-7.6,30.37,NE,54,0.0,0.0,5,0.00,CLR,,0.00,WeatherDisplay:10.37,2013-08-26 06:05:00,
2013-08-26 02:06:00,65.1,-3.9,30.37,NE,54,0.0,0.0,6,0.00,CLR,,0.00,WeatherDisplay:10.37,2013-08-26 06:06:00,
2013-08-26 02:10:00,64.1,-4.6,30.37,NE,54,0.0,0.0,6,0.00,CLR,,0.00,WeatherDisplay:10.37,2013-08-26 06:10:00,
2013-08-26 02:11:00,64.2,-4.6,30.37,NE,54,0.0,0.0,6,0.00,CLR,,0.00,WeatherDisplay:10.37,2013-08-26 06:11:00,
2013-08-26 02:12:00,64.2,-4.6,30.37,NE,54,0.0,0.0,6,0.00,CLR,,0.00,WeatherDisplay:10.37,2013-08-26 06:12:00,
2013-08-26 02:15:00,64.3,-4.5,30.36,NE,54,0.0,0.0,6,0.00,CLR,,0.00,WeatherDisplay:10.37,2013-08-26 06:15:00,
2013-08-26 02:16:00,64.3,-4.5,30.36,NE,54,0.0,0.0,6,0.00,CLR,,0.00,WeatherDisplay:10.37,2013-08-26 06:16:00,
2013-08-26 02:17:00,64.6,-4.3,30.36,NE,54,0.0,0.0,6,0.00,CLR,,0.00,WeatherDisplay:10.37,2013-08-26 06:17:00,
2013-08-26 02:20:00,64.7,-8.0,30.36,NE,54,0.0,0.0,5,0.00,CLR,,0.00,WeatherDisplay:10.37,2013-08-26 06:20:00,
2013-08-26 02:21:00,64.8,-7.9,30.36,NE,54,0.0,0.0,5,0.00,CLR,,0.00,WeatherDisplay:10.37,2013-08-26 06:21:00,
2013-08-26 02:22:00,64.9,-7.8,30.36,NE,54,0.0,0.0,5,0.00,CLR,,0.00,WeatherDisplay:10.37,2013-08-26 06:22:00,
2013-08-26 02:23:00,64.7,-8.0,30.35,NE,54,0.0,0.0,5,0.00,CLR,,0.00,WeatherDisplay:10.37,2013-08-26 06:23:00,
2013-08-26 02:26:00,65.3,-7.5,30.35,NE,54,0.0,0.0,5,0.00,CLR,,0.00,WeatherDisplay:10.37,2013-08-26 06:26:00,
2013-08-26 02:27:00,65.1,-7.7,30.35,NE,54,0.0,0.0,5,0.00,CLR,,0.00,WeatherDisplay:10.37,2013-08-26 06:27:00,
2013-08-26 02:28:00,65.0,-7.7,30.36,NE,54,0.0,0.0,5,0.00,CLR,,0.00,WeatherDisplay:10.37,2013-08-26 06:28:00,
2013-08-26 02:31:00,64.6,-8.0,30.35,NE,54,0.0,0.0,5,0.00,CLR,,0.00,WeatherDisplay:10.37,2013-08-26 06:31:00,
2013-08-26 02:33:00,64.5,-4.3,30.35,NE,54,0.0,0.0,6,0.00,CLR,,0.00,WeatherDisplay:10.37,2013-08-26 06:33:00,
2013-08-26 02:36:00,63.5,-5.1,30.35,NE,54,0.0,0.0,6,0.00,CLR,,0.00,WeatherDisplay:10.37,2013-08-26 06:36:00,
2013-08-26 02:38:00,63.5,-5.1,30.35,NE,54,0.0,0.0,6,0.00,CLR,,0.00,WeatherDisplay:10.37,2013-08-26 06:38:00,
2013-08-26 02:39:00,63.3,-5.2,30.35,NE,54,0.0,0.0,6,0.00,CLR,,0.00,WeatherDisplay:10.37,2013-08-26 06:39:00,
2013-08-26 02:41:00,63.3,-2.0,30.35,NE,54,0.0,0.0,7,0.00,CLR,,0.00,WeatherDisplay:10.37,2013-08-26 06:41:00,
2013-08-26 02:42:00,63.8,-1.6,30.35,NE,54,0.0,0.0,7,0.00,CLR,,0.00,WeatherDisplay:10.37,2013-08-26 06:42:00,
2013-08-26 02:43:00,63.5,-1.8,30.35,NE,54,0.0,0.0,7,0.00,CLR,,0.00,WeatherDisplay:10.37,2013-08-26 06:43:00,
2013-08-26 02:44:00,63.7,-4.9,30.35,NE,54,0.0,0.0,6,0.00,CLR,,0.00,WeatherDisplay:10.37,2013-08-26 06:44:00,
2013-08-26 02:46:00,64.0,-4.7,30.35,NE,54,0.0,0.0,6,0.00,CLR,,0.00,WeatherDisplay:10.37,2013-08-26 06:46:00,
2013-08-26 02:47:00,64.0,-4.7,30.35,NE,54,0.0,0.0,6,0.00,CLR,,0.00,WeatherDisplay:10.37,2013-08-26 06:47:00,
2013-08-26 02:48:00,64.1,-4.6,30.35,NE,54,0.0,0.0,6,0.00,CLR,,0.00,WeatherDisplay:10.37,2013-08-26 06:48:00,
2013-08-26 02:49:00,64.0,-8.5,30.35,NE,54,0.0,0.0,5,0.00,CLR,,0.00,WeatherDisplay:10.37,2013-08-26 06:49:00,
2013-08-26 02:51:00,63.9,-4.8,30.35,NE,54,0.0,0.0,6,0.00,CLR,,0.00,WeatherDisplay:10.37,2013-08-26 06:51:00,
2013-08-26 02:52:00,63.8,-4.8,30.35,NE,54,0.0,0.0,6,0.00,CLR,,0.00,WeatherDisplay:10.37,2013-08-26 06:52:00,
2013-08-26 02:53:00,64.0,-4.7,30.35,NE,54,0.0,0.0,6,0.00,CLR,,0.00,WeatherDisplay:10.37,2013-08-26 06:53:00,
2013-08-26 02:54:00,64.0,-4.7,30.35,NE,54,0.0,0.0,6,0.00,CLR,,0.00,WeatherDisplay:10.37,2013-08-26 06:54:00,
2013-08-26 02:56:00,63.5,1.0,30.36,NE,54,0.0,0.0,8,0.00,CLR,,0.00,WeatherDisplay:10.37,2013-08-26 06:56:00,
2013-08-26 02:57:00,63.9,1.3,30.35,NE,54,0.0,0.0,8,0.00,CLR,,0.00,WeatherDisplay:10.37,2013-08-26 06:57:00,
2013-08-26 02:59:00,64.1,1.5,30.36,NE,54,0.0,0.0,8,0.00,CLR,,0.00,WeatherDisplay:10.37,2013-08-26 06:59:00,
2013-08-26 03:01:00,64.1,-1.4,30.35,NE,54,0.0,0.0,7,0.00,CLR,,0.00,WeatherDisplay:10.37,2013-08-26 07:01:00,
2013-08-26 03:02:00,64.2,-1.3,30.35,NE,54,0.0,0.0,7,0.00,CLR,,0.00,WeatherDisplay:10.37,2013-08-26 07:02:00,
2013-08-26 03:04:00,64.1,-4.6,30.35,NE,54,0.0,0.0,6,0.00,CLR,,0.00,WeatherDisplay:10.37,2013-08-26 07:04:00,
2013-08-26 03:06:00,64.2,-4.6,30.35,NE,54,0.0,0.0,6,0.00,CLR,,0.00,WeatherDisplay:10.37,2013-08-26 07:06:00,
2013-08-26 03:07:00,64.0,-4.7,30.35,NE,54,0.0,0.0,6,0.00,CLR,,0.00,WeatherDisplay:10.37,2013-08-26 07:07:00,
2013-08-26 03:09:00,63.7,-4.9,30.35,NE,54,0.0,0.0,6,0.00,CLR,,0.00,WeatherDisplay:10.37,2013-08-26 07:09:00,
2013-08-26 03:10:00,64.0,-4.7,30.35,NE,54,0.0,0.0,6,0.00,CLR,,0.00,WeatherDisplay:10.37,2013-08-26 07:10:00,
2013-08-26 03:11:00,64.0,-4.7,30.35,NE,54,0.0,0.0,6,0.00,CLR,,0.00,WeatherDisplay:10.37,2013-08-26 07:11:00,
2013-08-26 03:13:00,63.7,-4.9,30.35,NE,54,0.0,0.0,6,0.00,CLR,,0.00,WeatherDisplay:10.37,2013-08-26 07:13:00,
2013-08-26 03:14:00,64.3,-4.5,30.35,NE,54,0.0,0.0,6,0.00,CLR,,0.00,WeatherDisplay:10.37,2013-08-26 07:14:00,
2013-08-26 03:15:00,64.2,-4.6,30.35,NE,54,0.0,0.0,6,0.00,CLR,,0.00,WeatherDisplay:10.37,2013-08-26 07:15:00,
2013-08-26 03:16:00,64.3,-4.5,30.35,NE,54,0.0,0.0,6,0.00,CLR,,0.00,WeatherDisplay:10.37,2013-08-26 07:16:00,
2013-08-26 03:18:00,64.3,-4.5,30.35,NE,54,0.0,0.0,6,0.00,CLR,,0.00,WeatherDisplay:10.37,2013-08-26 07:18:00,
2013-08-26 03:19:00,64.4,-1.2,30.35,NE,54,0.0,0.0,7,0.00,CLR,,0.00,WeatherDisplay:10.37,2013-08-26 07:19:00,
2013-08-26 03:20:00,64.5,-1.1,30.34,NE,54,0.0,0.0,7,0.00,CLR,,0.00,WeatherDisplay:10.37,2013-08-26 07:20:00,
2013-08-26 03:22:00,63.6,1.1,30.34,NE,54,0.0,0.0,8,0.00,CLR,,0.00,WeatherDisplay:10.37,2013-08-26 07:22:00,
2013-08-26 03:23:00,63.8,3.8,30.34,NE,54,0.0,0.0,9,0.00,CLR,,0.00,WeatherDisplay:10.37,2013-08-26 07:23:00,
2013-08-26 03:24:00,63.5,5.9,30.34,NE,54,0.0,0.0,10,0.00,CLR,,0.00,WeatherDisplay:10.37,2013-08-26 07:24:00,
2013-08-26 03:25:00,63.1,5.6,30.34,NE,54,0.0,0.0,10,0.00,CLR,,0.00,WeatherDisplay:10.37,2013-08-26 07:25:00,
2013-08-26 03:27:00,63.1,9.6,30.34,NE,54,0.0,0.0,12,0.00,CLR,,0.00,WeatherDisplay:10.37,2013-08-26 07:27:00,
2013-08-26 03:28:00,63.0,13.0,30.34,NE,54,0.0,0.0,14,0.00,CLR,,0.00,WeatherDisplay:10.37,2013-08-26 07:28:00,
2013-08-26 03:29:00,62.5,12.6,30.34,NE,54,0.0,0.0,14,0.00,CLR,,0.00,WeatherDisplay:10.37,2013-08-26 07:29:00,
2013-08-26 03:30:00,62.3,15.5,30.34,NE,54,0.0,0.0,16,0.00,CLR,,0.00,WeatherDisplay:10.37,2013-08-26 07:30:00,
2013-08-26 03:31:00,62.1,18.0,30.34,NE,54,0.0,0.0,18,0.00,CLR,,0.00,WeatherDisplay:10.37,2013-08-26 07:31:00,
2013-08-26 03:32:00,62.2,18.1,30.34,NE,54,0.0,0.0,18,0.00,CLR,,0.00,WeatherDisplay:10.37,2013-08-26 07:32:00,
2013-08-26 03:34:00,61.8,22.5,30.34,NE,54,0.0,0.0,22,0.00,CLR,,0.00,WeatherDisplay:10.37,2013-08-26 07:34:00,
2013-08-26 03:35:00,61.7,23.5,30.34,NE,54,0.0,0.0,23,0.00,CLR,,0.00,WeatherDisplay:10.37,2013-08-26 07:35:00,
2013-08-26 03:36:00,61.6,24.4,30.34,NE,54,0.0,0.0,24,0.00,CLR,,0.00,WeatherDisplay:10.37,2013-08-26 07:36:00,
2013-08-26 03:37:00,61.7,25.5,30.34,NE,54,0.0,0.0,25,0.00,CLR,,0.00,WeatherDisplay:10.37,2013-08-26 07:37:00,
2013-08-26 03:39:00,61.5,26.3,30.34,NE,54,0.0,0.0,26,0.00,CLR,,0.00,WeatherDisplay:10.37,2013-08-26 07:39:00,
2013-08-26 03:40:00,61.7,26.4,30.34,NE,54,0.0,0.0,26,0.00,CLR,,0.00,WeatherDisplay:10.37,2013-08-26 07:40:00,
2013-08-26 03:41:00,61.1,26.8,30.34,NE,54,0.0,0.0,27,0.00,CLR,,0.00,WeatherDisplay:10.37,2013-08-26 07:41:00,
2013-08-26 03:42:00,61.2,27.8,30.34,NE,54,0.0,0.0,28,0.00,CLR,,0.00,WeatherDisplay:10.37,2013-08-26 07:42:00,
2013-08-26 03:44:00,61.5,28.9,30.34,NE,54,0.0,0.0,29,0.00,CLR,,0.00,WeatherDisplay:10.37,2013-08-26 07:44:00,
2013-08-26 03:45:00,61.2,28.7,30.34,NE,54,0.0,0.0,29,0.00,CLR,,0.00,WeatherDisplay:10.37,2013-08-26 07:45:00,
2013-08-26 03:46:00,61.1,28.6,30.34,NE,54,0.0,0.0,29,0.00,CLR,,0.00,WeatherDisplay:10.37,2013-08-26 07:46:00,
2013-08-26 03:47:00,61.2,29.5,30.34,NE,54,0.0,0.0,30,0.00,CLR,,0.00,WeatherDisplay:10.37,2013-08-26 07:47:00,
2013-08-26 03:49:00,61.1,29.4,30.34,NE,54,0.0,0.0,30,0.00,CLR,,0.00,WeatherDisplay:10.37,2013-08-26 07:49:00,
2013-08-26 03:50:00,60.8,29.9,30.34,NE,54,0.0,0.0,31,0.00,CLR,,0.00,WeatherDisplay:10.37,2013-08-26 07:50:00,
2013-08-26 03:51:00,61.0,30.1,30.34,NE,54,0.0,0.0,31,0.00,CLR,,0.00,WeatherDisplay:10.37,2013-08-26 07:51:00,
2013-08-26 03:52:00,60.4,29.6,30.34,NE,54,0.0,0.0,31,0.00,CLR,,0.00,WeatherDisplay:10.37,2013-08-26 07:52:00,
2013-08-26 03:54:00,61.0,30.9,30.34,NE,54,0.0,0.0,32,0.00,CLR,,0.00,WeatherDisplay:10.37,2013-08-26 07:54:00,
2013-08-26 03:55:00,60.9,30.8,30.34,NE,54,0.0,0.0,32,0.00,CLR,,0.00,WeatherDisplay:10.37,2013-08-26 07:55:00,
2013-08-26 03:57:00,60.5,30.5,30.34,NE,54,0.0,0.0,32,0.00,CLR,,0.00,WeatherDisplay:10.37,2013-08-26 07:57:00,
2013-08-26 03:58:00,60.6,30.6,30.34,NE,54,0.0,0.0,32,0.00,CLR,,0.00,WeatherDisplay:10.37,2013-08-26 07:58:00,
2013-08-26 03:59:00,60.6,30.6,30.34,NE,54,0.0,0.0,32,0.00,CLR,,0.00,WeatherDisplay:10.37,2013-08-26 07:59:00,
2013-08-26 04:00:00,61.0,30.9,30.34,NE,54,0.0,0.0,32,0.00,CLR,,0.00,WeatherDisplay:10.37,2013-08-26 08:00:00,
2013-08-26 04:02:00,60.9,30.8,30.34,NE,54,0.0,0.0,32,0.00,CLR,,0.00,WeatherDisplay:10.37,2013-08-26 08:02:00,
2013-08-26 04:05:00,61.4,29.7,30.34,NE,54,0.0,0.0,30,0.00,CLR,,0.00,WeatherDisplay:10.37,2013-08-26 08:05:00,
2013-08-26 04:06:00,61.1,29.4,30.34,NE,54,0.0,0.0,30,0.00,CLR,,0.00,WeatherDisplay:10.37,2013-08-26 08:06:00,
2013-08-26 04:07:00,61.3,28.7,30.34,NE,54,0.0,0.0,29,0.00,CLR,,0.00,WeatherDisplay:10.37,2013-08-26 08:07:00,
2013-08-26 04:08:00,61.6,29.0,30.34,NE,54,0.0,0.0,29,0.00,CLR,,0.00,WeatherDisplay:10.37,2013-08-26 08:08:00,
2013-08-26 04:11:00,61.4,28.8,30.34,NE,54,0.0,0.0,29,0.00,CLR,,0.00,WeatherDisplay:10.37,2013-08-26 08:11:00,
2013-08-26 04:12:00,61.2,28.7,30.34,NE,54,0.0,0.0,29,0.00,CLR,,0.00,WeatherDisplay:10.37,2013-08-26 08:12:00,
2013-08-26 04:13:00,61.5,28.9,30.34,NE,54,0.0,0.0,29,0.00,CLR,,0.00,WeatherDisplay:10.37,2013-08-26 08:13:00,
2013-08-26 04:16:00,61.3,28.7,30.33,NE,54,0.0,0.0,29,0.00,CLR,,0.00,WeatherDisplay:10.37,2013-08-26 08:16:00,
2013-08-26 04:17:00,61.3,28.7,30.33,NE,54,0.0,0.0,29,0.00,CLR,,0.00,WeatherDisplay:10.37,2013-08-26 08:17:00,
2013-08-26 04:18:00,61.2,28.7,30.33,NE,54,0.0,0.0,29,0.00,CLR,,0.00,WeatherDisplay:10.37,2013-08-26 08:18:00,
2013-08-26 04:21:00,61.6,27.3,30.34,NE,54,0.0,0.0,27,0.00,CLR,,0.00,WeatherDisplay:10.37,2013-08-26 08:21:00,
2013-08-26 04:22:00,62.0,27.6,30.34,NE,54,0.0,0.0,27,0.00,CLR,,0.00,WeatherDisplay:10.37,2013-08-26 08:22:00,
2013-08-26 04:23:00,61.5,27.2,30.34,NE,54,0.0,0.0,27,0.00,CLR,,0.00,WeatherDisplay:10.37,2013-08-26 08:23:00,
2013-08-26 04:26:00,61.7,26.4,30.34,NE,54,0.0,0.0,26,0.00,CLR,,0.00,WeatherDisplay:10.37,2013-08-26 08:26:00,
2013-08-26 04:27:00,61.8,26.5,30.34,NE,54,0.0,0.0,26,0.00,CLR,,0.00,WeatherDisplay:10.37,2013-08-26 08:27:00,
2013-08-26 04:28:00,61.4,26.2,30.34,NE,54,0.0,0.0,26,0.00,CLR,,0.00,WeatherDisplay:10.37,2013-08-26 08:28:00,
2013-08-26 04:31:00,61.2,26.9,30.34,NE,54,0.0,0.0,27,0.00,CLR,,0.00,WeatherDisplay:10.37,2013-08-26 08:31:00,
2013-08-26 04:32:00,61.3,27.0,30.34,NE,54,0.0,0.0,27,0.00,CLR,,0.00,WeatherDisplay:10.37,2013-08-26 08:32:00,
2013-08-26 04:33:00,60.9,27.5,30.34,NE,54,0.0,0.0,28,0.00,CLR,,0.00,WeatherDisplay:10.37,2013-08-26 08:33:00,
2013-08-26 04:34:00,61.3,27.0,30.33,NE,54,0.0,0.0,27,0.00,CLR,,0.00,WeatherDisplay:10.37,2013-08-26 08:34:00,
2013-08-26 04:36:00,61.1,26.8,30.33,NE,54,0.0,0.0,27,0.00,CLR,,0.00,WeatherDisplay:10.37,2013-08-26 08:36:00,
2013-08-26 04:37:00,61.2,27.8,30.33,NE,54,0.0,0.0,28,0.00,CLR,,0.00,WeatherDisplay:10.37,2013-08-26 08:37:00,
2013-08-26 04:38:00,61.1,27.7,30.33,NE,54,0.0,0.0,28,0.00,CLR,,0.00,WeatherDisplay:10.37,2013-08-26 08:38:00,
2013-08-26 04:39:00,61.1,27.7,30.33,NE,54,0.0,0.0,28,0.00,CLR,,0.00,WeatherDisplay:10.37,2013-08-26 08:39:00,
2013-08-26 04:42:00,61.2,27.8,30.33,NE,54,0.0,0.0,28,0.00,CLR,,0.00,WeatherDisplay:10.37,2013-08-26 08:42:00,
2013-08-26 04:43:00,61.3,27.9,30.33,NE,54,0.0,0.0,28,0.00,CLR,,0.00,WeatherDisplay:10.37,2013-08-26 08:43:00,
2013-08-26 04:44:00,61.0,26.7,30.33,NE,54,0.0,0.0,27,0.00,CLR,,0.00,WeatherDisplay:10.37,2013-08-26 08:44:00,
2013-08-26 04:47:00,61.2,26.9,30.33,NE,54,0.0,0.0,27,0.00,CLR,,0.00,WeatherDisplay:10.37,2013-08-26 08:47:00,
2013-08-26 04:48:00,61.0,25.8,30.33,NE,54,0.0,0.0,26,0.00,CLR,,0.00,WeatherDisplay:10.37,2013-08-26 08:48:00,
2013-08-26 04:49:00,61.6,26.3,30.33,NE,54,0.0,0.0,26,0.00,CLR,,0.00,WeatherDisplay:10.37,2013-08-26 08:49:00,
2013-08-26 04:52:00,62.5,26.2,30.33,NE,54,0.0,0.0,25,0.00,CLR,,0.00,WeatherDisplay:10.37,2013-08-26 08:52:00,
2013-08-26 04:53:00,62.0,25.7,30.33,NE,54,0.0,0.0,25,0.00,CLR,,0.00,WeatherDisplay:10.37,2013-08-26 08:53:00,
2013-08-26 04:55:00,62.2,22.8,30.33,NE,54,0.0,0.0,22,0.00,CLR,,0.00,WeatherDisplay:10.37,2013-08-26 08:55:00,
2013-08-26 04:58:00,61.7,22.4,30.33,NE,54,0.0,0.0,22,0.00,CLR,,0.00,WeatherDisplay:10.37,2013-08-26 08:58:00,
2013-08-26 05:00:00,61.7,22.4,30.33,NE,54,0.0,0.0,22,0.00,CLR,,0.00,WeatherDisplay:10.37,2013-08-26 09:00:00,
2013-08-26 05:03:00,61.2,23.1,30.33,NE,54,0.0,0.0,23,0.00,CLR,,0.00,WeatherDisplay:10.37,2013-08-26 09:03:00,
2013-08-26 05:05:00,61.6,23.4,30.33,NE,54,0.0,0.0,23,0.00,CLR,,0.00,WeatherDisplay:10.37,2013-08-26 09:05:00,
2013-08-26 05:08:00,61.7,22.4,30.33,NE,54,0.0,0.0,22,0.00,CLR,,0.00,WeatherDisplay:10.37,2013-08-26 09:08:00,
2013-08-26 05:11:00,61.5,22.3,30.32,NE,54,0.0,0.0,22,0.00,CLR,,0.00,WeatherDisplay:10.37,2013-08-26 09:11:00,
2013-08-26 05:13:00,61.7,21.3,30.32,NE,54,0.0,0.0,21,0.00,CLR,,0.00,WeatherDisplay:10.37,2013-08-26 09:13:00,
2013-08-26 05:14:00,62.1,21.7,30.32,NE,54,0.0,0.0,21,0.00,CLR,,0.00,WeatherDisplay:10.37,2013-08-26 09:14:00,
2013-08-26 05:16:00,62.0,19.2,30.32,NE,54,0.0,0.0,19,0.00,CLR,,0.00,WeatherDisplay:10.37,2013-08-26 09:16:00,
2013-08-26 05:18:00,61.8,17.8,30.32,NE,54,0.0,0.0,18,0.00,CLR,,0.00,WeatherDisplay:10.37,2013-08-26 09:18:00,
2013-08-26 05:19:00,61.9,17.9,30.33,NE,54,0.0,0.0,18,0.00,CLR,,0.00,WeatherDisplay:10.37,2013-08-26 09:19:00,
2013-08-26 05:21:00,61.7,19.0,30.33,NE,54,0.0,0.0,19,0.00,CLR,,0.00,WeatherDisplay:10.37,2013-08-26 09:21:00,
2013-08-26 05:23:00,61.5,20.0,30.33,NE,54,0.0,0.0,20,0.00,CLR,,0.00,WeatherDisplay:10.37,2013-08-26 09:23:00,
2013-08-26 05:24:00,61.5,20.0,30.33,NE,54,0.0,0.0,20,0.00,CLR,,0.00,WeatherDisplay:10.37,2013-08-26 09:24:00,
2013-08-26 05:26:00,61.5,21.2,30.33,NE,54,0.0,0.0,21,0.00,CLR,,0.00,WeatherDisplay:10.37,2013-08-26 09:26:00,
2013-08-26 05:28:00,61.5,21.2,30.33,NE,54,0.0,0.0,21,0.00,CLR,,0.00,WeatherDisplay:10.37,2013-08-26 09:28:00,
2013-08-26 05:29:00,61.2,20.9,30.33,NE,54,0.0,0.0,21,0.00,CLR,,0.00,WeatherDisplay:10.37,2013-08-26 09:29:00,
2013-08-26 05:31:00,61.2,20.9,30.33,NE,54,0.0,0.0,21,0.00,CLR,,0.00,WeatherDisplay:10.37,2013-08-26 09:31:00,
2013-08-26 05:34:00,61.3,23.1,30.33,NE,54,0.0,0.0,23,0.00,CLR,,0.00,WeatherDisplay:10.37,2013-08-26 09:34:00,
2013-08-26 05:37:00,60.5,23.5,30.33,NE,54,0.0,0.0,24,0.00,CLR,,0.00,WeatherDisplay:10.37,2013-08-26 09:37:00,
2013-08-26 05:39:00,60.5,24.5,30.32,NE,54,0.0,0.0,25,0.00,CLR,,0.00,WeatherDisplay:10.37,2013-08-26 09:39:00,
2013-08-26 05:40:00,60.6,24.5,30.32,NE,54,0.0,0.0,25,0.00,CLR,,0.00,WeatherDisplay:10.37,2013-08-26 09:40:00,
2013-08-26 05:42:00,60.7,24.6,30.32,NE,54,0.0,0.0,25,0.00,CLR,,0.00,WeatherDisplay:10.37,2013-08-26 09:42:00,
2013-08-26 05:44:00,60.6,24.5,30.32,NE,54,0.0,0.0,25,0.00,CLR,,0.00,WeatherDisplay:10.37,2013-08-26 09:44:00,
2013-08-26 05:45:00,60.5,24.5,30.32,NE,54,0.0,0.0,25,0.00,CLR,,0.00,WeatherDisplay:10.37,2013-08-26 09:45:00,
2013-08-26 05:47:00,60.4,25.3,30.32,NE,54,0.0,0.0,26,0.00,CLR,,0.00,WeatherDisplay:10.37,2013-08-26 09:47:00,
2013-08-26 05:49:00,60.3,26.1,30.32,NE,54,0.0,0.0,27,0.00,CLR,,0.00,WeatherDisplay:10.37,2013-08-26 09:49:00,
2013-08-26 05:50:00,60.4,26.2,30.32,NE,54,0.0,0.0,27,0.00,CLR,,0.00,WeatherDisplay:10.37,2013-08-26 09:50:00,
2013-08-26 05:52:00,60.2,26.9,30.33,NE,54,0.0,0.0,28,0.00,CLR,,0.00,WeatherDisplay:10.37,2013-08-26 09:52:00,
2013-08-26 05:54:00,60.4,27.1,30.33,NE,54,0.0,0.0,28,0.00,CLR,,0.00,WeatherDisplay:10.37,2013-08-26 09:54:00,
2013-08-26 05:55:00,59.9,26.7,30.33,NE,54,0.0,0.0,28,0.00,CLR,,0.00,WeatherDisplay:10.37,2013-08-26 09:55:00,
2013-08-26 05:57:00,60.4,28.0,30.32,NE,54,0.0,0.0,29,0.00,CLR,,0.00,WeatherDisplay:10.37,2013-08-26 09:57:00,
2013-08-26 05:59:00,60.0,27.6,30.33,NE,54,0.0,0.0,29,0.00,CLR,,0.00,WeatherDisplay:10.37,2013-08-26 09:59:00,
2013-08-26 06:00:00,60.0,27.6,30.33,NE,54,0.0,0.0,29,0.00,CLR,,0.00,WeatherDisplay:10.37,2013-08-26 10:00:00,
2013-08-26 06:02:00,60.0,28.4,30.33,NE,54,0.0,0.0,30,0.00,CLR,,0.00,WeatherDisplay:10.37,2013-08-26 10:02:00,
2013-08-26 06:04:00,59.6,28.1,30.33,NE,54,0.0,0.0,30,0.00,CLR,,0.00,WeatherDisplay:10.37,2013-08-26 10:04:00,
2013-08-26 06:05:00,59.9,28.4,30.33,NE,54,0.0,0.0,30,0.00,CLR,,0.00,WeatherDisplay:10.37,2013-08-26 10:05:00,
2013-08-26 06:06:00,60.2,28.6,30.33,NE,54,0.0,0.0,30,0.00,CLR,,0.00,WeatherDisplay:10.37,2013-08-26 10:06:00,
2013-08-26 06:07:00,59.6,28.1,30.33,NE,54,0.0,0.0,30,0.00,CLR,,0.00,WeatherDisplay:10.37,2013-08-26 10:07:00,
2013-08-26 06:09:00,60.1,28.5,30.33,NE,54,0.0,0.0,30,0.00,CLR,,0.00,WeatherDisplay:10.37,2013-08-26 10:09:00,
2013-08-26 06:10:00,60.0,29.2,30.33,NE,54,0.0,0.0,31,0.00,CLR,,0.00,WeatherDisplay:10.37,2013-08-26 10:10:00,
2013-08-26 06:11:00,59.5,28.8,30.33,NE,54,0.0,0.0,31,0.00,CLR,,0.00,WeatherDisplay:10.37,2013-08-26 10:11:00,
2013-08-26 06:13:00,59.7,29.0,30.33,NE,54,0.0,0.0,31,0.00,CLR,,0.00,WeatherDisplay:10.37,2013-08-26 10:13:00,
2013-08-26 06:14:00,59.8,29.1,30.33,NE,54,0.0,0.0,31,0.00,CLR,,0.00,WeatherDisplay:10.37,2013-08-26 10:14:00,
2013-08-26 06:16:00,58.9,29.1,30.33,NE,54,0.0,0.0,32,0.00,CLR,,0.00,WeatherDisplay:10.37,2013-08-26 10:16:00,
2013-08-26 06:18:00,58.9,29.8,30.33,NE,54,0.0,0.0,33,0.00,CLR,,0.00,WeatherDisplay:10.37,2013-08-26 10:18:00,
2013-08-26 06:19:00,58.9,30.6,30.33,NE,54,0.0,0.0,34,0.00,CLR,,0.00,WeatherDisplay:10.37,2013-08-26 10:19:00,
2013-08-26 06:21:00,58.6,31.0,30.33,NE,54,0.0,0.0,35,0.00,CLR,,0.00,WeatherDisplay:10.37,2013-08-26 10:21:00,
2013-08-26 06:23:00,58.5,31.6,30.33,NE,54,0.0,0.0,36,0.00,CLR,,0.00,WeatherDisplay:10.37,2013-08-26 10:23:00,
2013-08-26 06:24:00,58.5,31.6,30.33,NE,54,0.0,0.0,36,0.00,CLR,,0.00,WeatherDisplay:10.37,2013-08-26 10:24:00,
2013-08-26 06:26:00,59.0,32.1,30.33,NE,54,0.0,0.0,36,0.00,CLR,,0.00,WeatherDisplay:10.37,2013-08-26 10:26:00,
2013-08-26 06:27:00,58.4,32.2,30.33,NE,54,0.0,0.0,37,0.00,CLR,,0.00,WeatherDisplay:10.37,2013-08-26 10:27:00,
2013-08-26 06:28:00,58.6,32.4,30.33,NE,54,0.0,0.0,37,0.00,CLR,,0.00,WeatherDisplay:10.37,2013-08-26 10:28:00,
2013-08-26 06:30:00,58.5,32.3,30.33,NE,54,0.0,0.0,37,0.00,CLR,,0.00,WeatherDisplay:10.37,2013-08-26 10:30:00,
2013-08-26 06:31:00,58.8,33.2,30.33,NE,54,0.0,0.0,38,0.00,CLR,,0.00,WeatherDisplay:10.37,2013-08-26 10:31:00,
2013-08-26 06:32:00,57.4,32.0,30.32,NE,54,0.0,0.0,38,0.00,CLR,,0.00,WeatherDisplay:10.37,2013-08-26 10:32:00,
2013-08-26 06:33:00,58.3,33.4,30.33,NE,54,0.0,0.0,39,0.00,CLR,,0.00,WeatherDisplay:10.37,2013-08-26 10:33:00,
2013-08-26 06:35:00,58.2,33.3,30.32,NE,54,0.0,0.0,39,0.00,CLR,,0.00,WeatherDisplay:10.37,2013-08-26 10:35:00,
2013-08-26 06:36:00,57.9,33.1,30.33,NE,54,0.0,0.0,39,0.00,CLR,,0.00,WeatherDisplay:10.37,2013-08-26 10:36:00,
2013-08-26 06:39:00,56.6,32.5,30.33,NE,54,0.0,0.0,40,0.00,CLR,,0.00,WeatherDisplay:10.37,2013-08-26 10:39:00,
2013-08-26 06:40:00,57.9,33.7,30.33,NE,54,0.0,0.0,40,0.00,CLR,,0.00,WeatherDisplay:10.37,2013-08-26 10:40:00,
2013-08-26 06:41:00,57.7,33.5,30.33,NE,54,0.0,0.0,40,0.00,CLR,,0.00,WeatherDisplay:10.37,2013-08-26 10:41:00,
2013-08-26 06:44:00,57.2,33.7,30.33,NE,54,0.0,0.0,41,0.00,CLR,,0.00,WeatherDisplay:10.37,2013-08-26 10:44:00,
2013-08-26 06:45:00,57.1,33.6,30.33,NE,54,0.0,0.0,41,0.00,CLR,,0.00,WeatherDisplay:10.37,2013-08-26 10:45:00,
2013-08-26 06:47:00,56.6,33.8,30.33,NE,54,0.0,0.0,42,0.00,CLR,,0.00,WeatherDisplay:10.37,2013-08-26 10:47:00,
2013-08-26 06:49:00,56.7,33.8,30.33,NE,54,0.0,0.0,42,0.00,CLR,,0.00,WeatherDisplay:10.37,2013-08-26 10:49:00,
2013-08-26 06:50:00,57.0,34.1,30.33,NE,54,0.0,0.0,42,0.00,CLR,,0.00,WeatherDisplay:10.37,2013-08-26 10:50:00,
2013-08-26 06:52:00,55.6,33.4,30.33,NE,54,0.0,0.0,43,0.00,CLR,,0.00,WeatherDisplay:10.37,2013-08-26 10:52:00,
2013-08-26 06:54:00,55.9,33.7,30.33,NE,54,0.0,0.0,43,0.00,CLR,,0.00,WeatherDisplay:10.37,2013-08-26 10:54:00,
2013-08-26 06:55:00,55.7,33.5,30.34,NE,54,0.0,0.0,43,0.00,CLR,,0.00,WeatherDisplay:10.37,2013-08-26 10:55:00,
2013-08-26 06:57:00,56.6,34.9,30.34,NE,54,0.0,0.0,44,0.00,CLR,,0.00,WeatherDisplay:10.37,2013-08-26 10:57:00,
2013-08-26 06:58:00,55.8,34.8,30.34,NE,54,0.0,0.0,45,0.00,CLR,,0.00,WeatherDisplay:10.37,2013-08-26 10:58:00,
2013-08-26 06:59:00,55.5,34.5,30.34,NE,54,0.0,0.0,45,0.00,CLR,,0.00,WeatherDisplay:10.37,2013-08-26 10:59:00,
2013-08-26 07:00:00,55.2,34.8,30.34,NE,54,0.0,0.0,46,0.00,CLR,,0.00,WeatherDisplay:10.37,2013-08-26 11:00:00,
2013-08-26 07:02:00,56.5,36.0,30.33,NE,54,0.0,0.0,46,0.00,CLR,,0.00,WeatherDisplay:10.37,2013-08-26 11:02:00,
2013-08-26 07:03:00,56.3,35.8,30.33,NE,54,0.0,0.0,46,0.00,CLR,,0.00,WeatherDisplay:10.37,2013-08-26 11:03:00,
2013-08-26 07:04:00,56.9,36.9,30.33,NE,54,0.0,0.0,47,0.00,CLR,,0.00,WeatherDisplay:10.37,2013-08-26 11:04:00,
2013-08-26 07:05:00,56.1,36.1,30.34,NE,54,0.0,0.0,47,0.00,CLR,,0.00,WeatherDisplay:10.37,2013-08-26 11:05:00,
2013-08-26 07:07:00,56.9,36.9,30.34,NE,54,0.0,0.0,47,0.00,CLR,,0.00,WeatherDisplay:10.37,2013-08-26 11:07:00,
2013-08-26 07:08:00,56.9,36.9,30.34,NE,54,0.0,0.0,47,0.00,CLR,,0.00,WeatherDisplay:10.37,2013-08-26 11:08:00,
2013-08-26 07:09:00,57.8,37.7,30.34,NE,54,0.0,0.0,47,0.00,CLR,,0.00,WeatherDisplay:10.37,2013-08-26 11:09:00,
2013-08-26 07:10:00,57.8,37.7,30.34,NE,54,0.0,0.0,47,0.00,CLR,,0.00,WeatherDisplay:10.37,2013-08-26 11:10:00,
2013-08-26 07:13:00,56.8,37.3,30.34,NE,54,0.0,0.0,48,0.00,CLR,,0.00,WeatherDisplay:10.37,2013-08-26 11:13:00,
2013-08-26 07:14:00,57.2,37.7,30.34,NE,54,0.0,0.0,48,0.00,CLR,,0.00,WeatherDisplay:10.37,2013-08-26 11:14:00,
2013-08-26 07:15:00,56.0,36.6,30.34,NE,54,0.0,0.0,48,0.00,CLR,,0.00,WeatherDisplay:10.37,2013-08-26 11:15:00,
2013-08-26 07:16:00,56.6,37.1,30.34,NE,54,0.0,0.0,48,0.00,CLR,,0.00,WeatherDisplay:10.37,2013-08-26 11:16:00,
2013-08-26 07:18:00,57.4,37.9,30.34,NE,54,0.0,0.0,48,0.00,CLR,,0.00,WeatherDisplay:10.37,2013-08-26 11:18:00,
2013-08-26 07:19:00,57.1,37.6,30.34,NE,54,0.0,0.0,48,0.00,CLR,,0.00,WeatherDisplay:10.37,2013-08-26 11:19:00,
2013-08-26 07:21:00,56.7,37.7,30.34,NE,54,0.0,0.0,49,0.00,CLR,,0.00,WeatherDisplay:10.37,2013-08-26 11:21:00,
2013-08-26 07:23:00,57.4,38.4,30.34,NE,54,0.0,0.0,49,0.00,CLR,,0.00,WeatherDisplay:10.37,2013-08-26 11:23:00,
2013-08-26 07:24:00,58.4,39.3,30.34,NE,54,0.0,0.0,49,0.00,CLR,,0.00,WeatherDisplay:10.37,2013-08-26 11:24:00,
2013-08-26 07:26:00,57.3,38.3,30.34,NE,54,0.0,0.0,49,0.00,CLR,,0.00,WeatherDisplay:10.37,2013-08-26 11:26:00,
2013-08-26 07:28:00,57.6,38.6,30.34,NE,54,0.0,0.0,49,0.00,CLR,,0.00,WeatherDisplay:10.37,2013-08-26 11:28:00,
2013-08-26 07:29:00,57.6,38.6,30.34,NE,54,0.0,0.0,49,0.00,CLR,,0.00,WeatherDisplay:10.37,2013-08-26 11:29:00,
2013-08-26 07:31:00,58.1,39.0,30.34,NE,54,0.0,0.0,49,0.00,CLR,,0.00,WeatherDisplay:10.37,2013-08-26 11:31:00,
2013-08-26 07:33:00,57.9,38.8,30.34,NE,54,0.0,0.0,49,0.00,CLR,,0.00,WeatherDisplay:10.37,2013-08-26 11:33:00,
2013-08-26 07:34:00,58.9,39.8,30.34,NE,54,0.0,0.0,49,0.00,CLR,,0.00,WeatherDisplay:10.37,2013-08-26 11:34:00,
2013-08-26 07:35:00,58.9,39.8,30.34,NE,54,0.0,0.0,49,0.00,CLR,,0.00,WeatherDisplay:10.37,2013-08-26 11:35:00,
2013-08-26 07:36:00,58.5,39.4,30.34,NE,54,0.0,0.0,49,0.00,CLR,,0.00,WeatherDisplay:10.37,2013-08-26 11:36:00,
2013-08-26 07:38:00,58.5,39.4,30.33,NE,54,0.0,0.0,49,0.00,CLR,,0.00,WeatherDisplay:10.37,2013-08-26 11:38:00,
2013-08-26 07:39:00,58.9,39.8,30.33,NE,54,0.0,0.0,49,0.00,CLR,,0.00,WeatherDisplay:10.37,2013-08-26 11:39:00,
2013-08-26 07:40:00,58.0,38.9,30.34,NE,54,0.0,0.0,49,0.00,CLR,,0.00,WeatherDisplay:10.37,2013-08-26 11:40:00,
2013-08-26 07:41:00,59.1,39.9,30.33,NE,54,0.0,0.0,49,0.00,CLR,,0.00,WeatherDisplay:10.37,2013-08-26 11:41:00,
2013-08-26 07:43:00,58.2,39.1,30.33,NE,54,0.0,0.0,49,0.00,CLR,,0.00,WeatherDisplay:10.37,2013-08-26 11:43:00,
2013-08-26 07:44:00,59.3,40.1,30.33,NE,54,0.0,0.0,49,0.00,CLR,,0.00,WeatherDisplay:10.37,2013-08-26 11:44:00,
2013-08-26 07:45:00,59.0,39.9,30.33,NE,54,0.0,0.0,49,0.00,CLR,,0.00,WeatherDisplay:10.37,2013-08-26 11:45:00,
2013-08-26 07:46:00,58.7,39.6,30.33,NE,54,0.0,0.0,49,0.00,CLR,,0.00,WeatherDisplay:10.37,2013-08-26 11:46:00,
2013-08-26 07:48:00,58.8,39.1,30.34,NE,54,0.0,0.0,48,0.00,CLR,,0.00,WeatherDisplay:10.37,2013-08-26 11:48:00,
2013-08-26 07:50:00,58.8,39.1,30.34,NE,54,0.0,0.0,48,0.00,CLR,,0.00,WeatherDisplay:10.37,2013-08-26 11:50:00,
2013-08-26 07:51:00,59.3,39.6,30.34,NE,54,0.0,0.0,48,0.00,CLR,,0.00,WeatherDisplay:10.37,2013-08-26 11:51:00,
2013-08-26 07:54:00,58.9,39.2,30.34,NE,54,0.0,0.0,48,0.00,CLR,,0.00,WeatherDisplay:10.37,2013-08-26 11:54:00,
2013-08-26 07:55:00,59.5,39.8,30.34,NE,54,0.0,0.0,48,0.00,CLR,,0.00,WeatherDisplay:10.37,2013-08-26 11:55:00,
2013-08-26 07:56:00,59.2,39.5,30.34,NE,54,0.0,0.0,48,0.00,CLR,,0.00,WeatherDisplay:10.37,2013-08-26 11:56:00,
2013-08-26 07:57:00,58.8,39.1,30.34,NE,54,0.0,0.0,48,0.00,CLR,,0.00,WeatherDisplay:10.37,2013-08-26 11:57:00,
2013-08-26 07:59:00,59.4,39.1,30.34,NE,54,0.0,0.0,47,0.00,CLR,,0.00,WeatherDisplay:10.37,2013-08-26 11:59:00,
2013-08-26 08:00:00,59.6,39.9,30.34,NE,54,0.0,0.0,48,0.00,CLR,,0.00,WeatherDisplay:10.37,2013-08-26 12:00:00,
2013-08-26 08:01:00,60.0,40.2,30.34,NE,54,0.0,0.0,48,0.00,CLR,,0.00,WeatherDisplay:10.37,2013-08-26 12:01:00,
2013-08-26 08:02:00,59.8,39.5,30.34,NE,54,0.0,0.0,47,0.00,CLR,,0.00,WeatherDisplay:10.37,2013-08-26 12:02:00,
2013-08-26 08:04:00,60.2,38.2,30.34,NE,54,0.0,0.0,44,0.00,CLR,,0.00,WeatherDisplay:10.37,2013-08-26 12:04:00,
2013-08-26 08:05:00,60.1,38.1,30.34,NE,54,0.0,0.0,44,0.00,CLR,,0.00,WeatherDisplay:10.37,2013-08-26 12:05:00,
2013-08-26 08:06:00,60.4,37.8,30.34,NE,54,0.0,0.0,43,0.00,CLR,,0.00,WeatherDisplay:10.37,2013-08-26 12:06:00,
2013-08-26 08:07:00,60.3,35.9,30.34,NE,54,0.0,0.0,40,0.00,CLR,,0.00,WeatherDisplay:10.37,2013-08-26 12:07:00,
2013-08-26 08:10:00,61.1,33.9,30.33,NE,54,0.0,0.0,36,0.00,CLR,,0.00,WeatherDisplay:10.37,2013-08-26 12:10:00,
2013-08-26 08:11:00,61.3,31.9,30.33,NE,54,0.0,0.0,33,0.00,CLR,,0.00,WeatherDisplay:10.37,2013-08-26 12:11:00,
2013-08-26 08:12:00,61.0,30.1,30.33,NE,54,0.0,0.0,31,0.00,CLR,,0.00,WeatherDisplay:10.37,2013-08-26 12:12:00,
2013-08-26 08:15:00,61.6,28.1,30.33,NE,54,0.0,0.0,28,0.00,CLR,,0.00,WeatherDisplay:10.37,2013-08-26 12:15:00,
2013-08-26 08:16:00,61.5,28.1,30.33,NE,54,0.0,0.0,28,0.00,CLR,,0.00,WeatherDisplay:10.37,2013-08-26 12:16:00,
2013-08-26 08:17:00,62.0,28.5,30.33,NE,54,0.0,0.0,28,0.00,CLR,,0.00,WeatherDisplay:10.37,2013-08-26 12:17:00,
2013-08-26 08:19:00,61.5,26.3,30.33,NE,54,0.0,0.0,26,0.00,CLR,,0.00,WeatherDisplay:10.37,2013-08-26 12:19:00,
2013-08-26 08:20:00,61.8,26.5,30.33,NE,54,0.0,0.0,26,0.00,CLR,,0.00,WeatherDisplay:10.37,2013-08-26 12:20:00,
2013-08-26 08:21:00,61.8,26.5,30.33,NE,54,0.0,0.0,26,0.00,CLR,,0.00,WeatherDisplay:10.37,2013-08-26 12:21:00,
2013-08-26 08:22:00,61.8,26.5,30.33,NE,54,0.0,0.0,26,0.00,CLR,,0.00,WeatherDisplay:10.37,2013-08-26 12:22:00,
2013-08-26 08:24:00,62.3,25.0,30.33,NE,54,0.0,0.0,24,0.00,CLR,,0.00,WeatherDisplay:10.37,2013-08-26 12:24:00,
2013-08-26 08:25:00,62.3,25.0,30.33,NE,54,0.0,0.0,24,0.00,CLR,,0.00,WeatherDisplay:10.37,2013-08-26 12:25:00,
2013-08-26 08:26:00,62.5,25.2,30.33,NE,54,0.0,0.0,24,0.00,CLR,,0.00,WeatherDisplay:10.37,2013-08-26 12:26:00,
2013-08-26 08:27:00,61.8,22.5,30.33,NE,54,0.0,0.0,22,0.00,CLR,,0.00,WeatherDisplay:10.37,2013-08-26 12:27:00,
2013-08-26 08:30:00,62.1,23.8,30.33,NE,54,0.0,0.0,23,0.00,CLR,,0.00,WeatherDisplay:10.37,2013-08-26 12:30:00,
2013-08-26 08:31:00,62.2,24.9,30.33,NE,54,0.0,0.0,24,0.00,CLR,,0.00,WeatherDisplay:10.37,2013-08-26 12:31:00,
2013-08-26 08:32:00,62.1,23.8,30.33,NE,54,0.0,0.0,23,0.00,CLR,,0.00,WeatherDisplay:10.37,2013-08-26 12:32:00,
2013-08-26 08:35:00,62.4,21.9,30.33,NE,54,0.0,0.0,21,0.00,CLR,,0.00,WeatherDisplay:10.37,2013-08-26 12:35:00,
2013-08-26 08:36:00,62.8,22.2,30.33,NE,54,0.0,0.0,21,0.00,CLR,,0.00,WeatherDisplay:10.37,2013-08-26 12:36:00,
2013-08-26 08:37:00,63.2,21.4,30.34,NE,54,0.0,0.0,20,0.00,CLR,,0.00,WeatherDisplay:10.37,2013-08-26 12:37:00,
2013-08-26 08:40:00,63.2,18.9,30.34,NE,54,0.0,0.0,18,0.00,CLR,,0.00,WeatherDisplay:10.37,2013-08-26 12:40:00,
2013-08-26 08:41:00,63.5,20.5,30.34,NE,54,0.0,0.0,19,0.00,CLR,,0.00,WeatherDisplay:10.37,2013-08-26 12:41:00,
2013-08-26 08:42:00,63.3,20.3,30.34,NE,54,0.0,0.0,19,0.00,CLR,,0.00,WeatherDisplay:10.37,2013-08-26 12:42:00,
2013-08-26 08:43:00,63.0,18.8,30.34,WNW,294,1.7,2.8,18,0.00,CLR,,0.00,WeatherDisplay:10.37,2013-08-26 12:43:00,
2013-08-26 08:45:00,64.0,20.9,30.34,WNW,294,0.0,0.0,19,0.00,CLR,,0.00,WeatherDisplay:10.37,2013-08-26 12:45:00,
2013-08-26 08:46:00,63.8,19.4,30.34,WNW,294,0.0,0.0,18,0.00,CLR,,0.00,WeatherDisplay:10.37,2013-08-26 12:46:00,
2013-08-26 08:47:00,63.7,18.0,30.34,WNW,299,0.5,0.0,17,0.00,CLR,,0.00,WeatherDisplay:10.37,2013-08-26 12:47:00,
2013-08-26 08:48:00,63.5,17.8,30.34,NW,305,2.6,5.8,17,0.00,CLR,,0.00,WeatherDisplay:10.37,2013-08-26 12:48:00,
2013-08-26 08:51:00,64.0,19.6,30.34,NW,318,0.0,0.0,18,0.00,CLR,,0.00,WeatherDisplay:10.37,2013-08-26 12:51:00,
2013-08-26 08:52:00,63.8,18.1,30.34,NW,318,0.0,0.0,17,0.00,CLR,,0.00,WeatherDisplay:10.37,2013-08-26 12:52:00,
2013-08-26 08:54:00,63.6,17.9,30.34,NW,318,0.0,0.0,17,0.00,CLR,,0.00,WeatherDisplay:10.37,2013-08-26 12:54:00,
2013-08-26 08:56:00,64.0,18.3,30.34,West,278,2.4,4.6,17,0.00,CLR,,0.00,WeatherDisplay:10.37,2013-08-26 12:56:00,
2013-08-26 08:57:00,64.2,18.4,30.34,West,278,0.0,0.0,17,0.00,CLR,,0.00,WeatherDisplay:10.37,2013-08-26 12:57:00,
2013-08-26 08:58:00,64.6,18.7,30.34,West,268,0.9,3.3,17,0.00,CLR,,0.00,WeatherDisplay:10.37,2013-08-26 12:58:00,
2013-08-26 08:59:00,64.4,19.9,30.34,West,268,1.1,0.0,18,0.00,CLR,,0.00,WeatherDisplay:10.37,2013-08-26 12:59:00,
2013-08-26 09:01:00,64.0,19.6,30.34,West,268,0.0,0.0,18,0.00,CLR,,0.00,WeatherDisplay:10.37,2013-08-26 13:01:00,
2013-08-26 09:02:00,64.6,18.7,30.34,West,268,0.0,0.0,17,0.00,CLR,,0.00,WeatherDisplay:10.37,2013-08-26 13:02:00,
2013-08-26 09:03:00,64.4,17.2,30.34,West,268,0.0,0.0,16,0.00,CLR,,0.00,WeatherDisplay:10.37,2013-08-26 13:03:00,
2013-08-26 09:04:00,64.6,18.7,30.34,West,268,0.0,0.0,17,0.00,CLR,,0.00,WeatherDisplay:10.37,2013-08-26 13:04:00,
2013-08-26 09:06:00,64.6,18.7,30.34,West,268,0.0,0.0,17,0.00,CLR,,0.00,WeatherDisplay:10.37,2013-08-26 13:06:00,
2013-08-26 09:07:00,64.8,17.5,30.34,West,270,0.6,3.5,16,0.00,CLR,,0.00,WeatherDisplay:10.37,2013-08-26 13:07:00,
2013-08-26 09:08:00,65.1,17.7,30.34,West,270,0.0,3.5,16,0.00,CLR,,0.00,WeatherDisplay:10.37,2013-08-26 13:08:00,
2013-08-26 09:09:00,65.3,17.9,30.34,West,270,0.0,0.0,16,0.00,CLR,,0.00,WeatherDisplay:10.37,2013-08-26 13:09:00,
2013-08-26 09:11:00,65.1,2.2,30.34,West,270,0.0,0.0,8,0.00,CLR,,0.00,WeatherDisplay:10.37,2013-08-26 13:11:00,
2013-08-26 09:12:00,65.6,-0.3,30.34,West,270,0.0,0.0,7,0.00,CLR,,0.00,WeatherDisplay:10.37,2013-08-26 13:12:00,
2013-08-26 09:14:00,65.7,7.6,30.34,West,278,0.0,0.0,10,0.00,CLR,,0.00,WeatherDisplay:10.37,2013-08-26 13:14:00,
2013-08-26 09:16:00,65.7,2.7,30.34,West,278,0.0,0.0,8,0.00,CLR,,0.00,WeatherDisplay:10.37,2013-08-26 13:16:00,
2013-08-26 09:17:00,66.0,7.8,30.34,West,278,0.0,0.0,10,0.00,CLR,,0.00,WeatherDisplay:10.37,2013-08-26 13:17:00,
2013-08-26 09:19:00,65.7,9.7,30.34,West,278,0.0,0.0,11,0.00,CLR,,0.00,WeatherDisplay:10.37,2013-08-26 13:19:00,
2013-08-26 09:21:00,66.4,8.1,30.34,West,278,0.0,0.0,10,0.00,CLR,,0.00,WeatherDisplay:10.37,2013-08-26 13:21:00,
2013-08-26 09:22:00,66.1,7.9,30.34,West,278,0.0,0.0,10,0.00,CLR,,0.00,WeatherDisplay:10.37,2013-08-26 13:22:00,
2013-08-26 09:24:00,66.2,5.6,30.34,North,349,0.5,0.0,9,0.00,CLR,,0.00,WeatherDisplay:10.37,2013-08-26 13:24:00,
2013-08-26 09:27:00,66.9,0.7,30.34,North,349,0.0,0.0,7,0.00,CLR,,0.00,WeatherDisplay:10.37,2013-08-26 13:27:00,
2013-08-26 09:28:00,66.6,0.5,30.34,North,349,0.0,0.0,7,0.00,CLR,,0.00,WeatherDisplay:10.37,2013-08-26 13:28:00,
2013-08-26 09:29:00,67.0,3.6,30.34,North,349,0.0,0.0,8,0.00,CLR,,0.00,WeatherDisplay:10.37,2013-08-26 13:29:00,
2013-08-26 09:30:00,67.0,0.8,30.34,North,349,0.0,0.0,7,0.00,CLR,,0.00,WeatherDisplay:10.37,2013-08-26 13:30:00,
2013-08-26 09:32:00,67.7,-2.0,30.34,WNW,296,1.4,4.6,6,0.00,CLR,,0.00,WeatherDisplay:10.37,2013-08-26 13:32:00,
2013-08-26 09:33:00,67.7,-2.0,30.34,North,350,0.0,4.6,6,0.00,CLR,,0.00,WeatherDisplay:10.37,2013-08-26 13:33:00,
2013-08-26 09:34:00,67.4,-2.2,30.34,North,350,0.0,0.0,6,0.00,CLR,,0.00,WeatherDisplay:10.37,2013-08-26 13:34:00,
2013-08-26 09:35:00,67.9,-1.9,30.34,North,350,0.0,0.0,6,0.00,CLR,,0.00,WeatherDisplay:10.37,2013-08-26 13:35:00,
2013-08-26 09:37:00,67.9,-1.9,30.35,North,350,0.0,0.0,6,0.00,CLR,,0.00,WeatherDisplay:10.37,2013-08-26 13:37:00,
2013-08-26 09:38:00,67.4,-2.2,30.34,North,350,0.0,0.0,6,0.00,CLR,,0.00,WeatherDisplay:10.37,2013-08-26 13:38:00,
2013-08-26 09:39:00,67.9,-1.9,30.34,WNW,299,1.5,3.1,6,0.00,CLR,,0.00,WeatherDisplay:10.37,2013-08-26 13:39:00,
2013-08-26 09:40:00,68.2,-1.6,30.35,WNW,299,1.5,4.6,6,0.00,CLR,,0.00,WeatherDisplay:10.37,2013-08-26 13:40:00,
2013-08-26 09:42:00,68.3,-1.6,30.34,NW,304,0.4,3.5,6,0.00,CLR,,0.00,WeatherDisplay:10.37,2013-08-26 13:42:00,
2013-08-26 09:43:00,68.4,-5.3,30.34,West,267,0.9,3.4,5,0.00,CLR,,0.00,WeatherDisplay:10.37,2013-08-26 13:43:00,
2013-08-26 09:44:00,68.4,-5.3,30.35,NW,304,1.9,4.6,5,0.00,CLR,,0.00,WeatherDisplay:10.37,2013-08-26 13:44:00,
2013-08-26 09:46:00,68.3,-1.6,30.35,NW,304,0.0,0.0,6,0.00,CLR,,0.00,WeatherDisplay:10.37,2013-08-26 13:46:00,
2013-08-26 09:47:00,68.4,-5.3,30.35,NW,304,0.0,0.0,5,0.00,CLR,,0.00,WeatherDisplay:10.37,2013-08-26 13:47:00,
2013-08-26 09:48:00,68.3,-10.0,30.35,WNW,289,3.3,5.8,4,0.00,CLR,,0.00,WeatherDisplay:10.37,2013-08-26 13:48:00,
2013-08-26 09:49:00,68.3,-10.0,30.35,WNW,289,4.2,6.9,4,0.00,CLR,,0.00,WeatherDisplay:10.37,2013-08-26 13:49:00,
2013-08-26 09:50:00,68.6,-9.8,30.34,NW,309,2.1,4.6,4,0.00,CLR,,0.00,WeatherDisplay:10.37,2013-08-26 13:50:00,
2013-08-26 09:51:00,68.5,-9.8,30.34,NW,305,3.2,5.8,4,0.00,CLR,,0.00,WeatherDisplay:10.37,2013-08-26 13:51:00,
2013-08-26 09:52:00,68.5,-9.8,30.34,NW,306,4.1,6.9,4,0.00,CLR,,0.00,WeatherDisplay:10.37,2013-08-26 13:52:00,
2013-08-26 09:53:00,68.9,-5.0,30.34,NW,306,0.0,5.8,5,0.00,CLR,,0.00,WeatherDisplay:10.37,2013-08-26 13:53:00,
2013-08-26 09:54:00,68.8,-9.6,30.34,NW,306,0.0,0.0,4,0.00,CLR,,0.00,WeatherDisplay:10.37,2013-08-26 13:54:00,
2013-08-26 09:55:00,68.6,-9.8,30.34,WNW,284,0.5,3.5,4,0.00,CLR,,0.00,WeatherDisplay:10.37,2013-08-26 13:55:00,
2013-08-26 09:56:00,69.0,-9.5,30.34,NNW,332,3.3,6.9,4,0.00,CLR,,0.00,WeatherDisplay:10.37,2013-08-26 13:56:00,
2013-08-26 09:57:00,68.7,-9.7,30.34,North,360,3.8,5.8,4,0.00,CLR,,0.00,WeatherDisplay:10.37,2013-08-26 13:57:00,
2013-08-26 09:58:00,69.2,-9.3,30.35,NNW,333,0.3,5.8,4,0.00,CLR,,0.00,WeatherDisplay:10.37,2013-08-26 13:58:00,
2013-08-26 09:59:00,69.4,-9.2,30.35,NNW,333,0.0,1.1,4,0.00,CLR,,0.00,WeatherDisplay:10.37,2013-08-26 13:59:00,
2013-08-26 10:00:00,69.5,-9.1,30.34,NNW,333,0.0,0.0,4,0.00,CLR,,0.00,WeatherDisplay:10.37,2013-08-26 14:00:00,
2013-08-26 10:01:00,69.8,-14.7,30.34,NNW,333,0.0,0.0,3,0.00,CLR,,0.00,WeatherDisplay:10.37,2013-08-26 14:01:00,
2013-08-26 10:02:00,70.0,-22.5,30.34,NW,318,2.2,3.4,2,0.00,CLR,,0.00,WeatherDisplay:10.37,2013-08-26 14:02:00,
2013-08-26 10:04:00,69.9,-22.5,30.34,NW,313,2.2,6.8,2,0.00,CLR,,0.00,WeatherDisplay:10.37,2013-08-26 14:04:00,
2013-08-26 10:05:00,70.2,-22.3,30.35,WNW,296,0.0,8.1,2,0.00,CLR,,0.00,WeatherDisplay:10.37,2013-08-26 14:05:00,
2013-08-26 10:07:00,70.3,-22.3,30.34,WNW,296,0.0,0.0,2,0.00,CLR,,0.00,WeatherDisplay:10.37,2013-08-26 14:07:00,
2013-08-26 10:08:00,70.5,-22.1,30.34,WNW,296,0.0,0.0,2,0.00,CLR,,0.00,WeatherDisplay:10.37,2013-08-26 14:08:00,
2013-08-26 10:09:00,70.6,-22.1,30.35,WNW,282,0.8,3.0,2,0.00,CLR,,0.00,WeatherDisplay:10.37,2013-08-26 14:09:00,
2013-08-26 10:10:00,70.7,-22.0,30.34,WNW,282,0.8,3.5,2,0.00,CLR,,0.00,WeatherDisplay:10.37,2013-08-26 14:10:00,
2013-08-26 10:12:00,70.8,-21.9,30.34,WNW,296,0.0,0.0,2,0.00,CLR,,0.00,WeatherDisplay:10.37,2013-08-26 14:12:00,
2013-08-26 10:13:00,70.6,-22.1,30.35,WNW,296,0.0,0.0,2,0.00,CLR,,0.00,WeatherDisplay:10.37,2013-08-26 14:13:00,
2013-08-26 10:15:00,70.8,-21.9,30.35,WNW,296,0.0,0.0,2,0.00,CLR,,0.00,WeatherDisplay:10.37,2013-08-26 14:15:00,
2013-08-26 10:16:00,70.6,-22.1,30.35,WNW,296,0.0,0.0,2,0.00,CLR,,0.00,WeatherDisplay:10.37,2013-08-26 14:16:00,
2013-08-26 10:17:00,70.9,-14.0,30.35,WNW,296,0.0,0.0,3,0.00,CLR,,0.00,WeatherDisplay:10.37,2013-08-26 14:17:00,
2013-08-26 10:18:00,71.1,-13.8,30.35,WNW,296,0.0,0.0,3,0.00,CLR,,0.00,WeatherDisplay:10.37,2013-08-26 14:18:00,
2013-08-26 10:20:00,71.1,-21.7,30.35,WNW,296,0.0,0.0,2,0.00,CLR,,0.00,WeatherDisplay:10.37,2013-08-26 14:20:00,
2013-08-26 10:21:00,71.2,-21.7,30.35,WNW,282,1.2,5.8,2,0.00,CLR,,0.00,WeatherDisplay:10.37,2013-08-26 14:21:00,
2013-08-26 10:23:00,70.7,-22.0,30.35,WNW,287,3.5,6.9,2,0.00,CLR,,0.00,WeatherDisplay:10.37,2013-08-26 14:23:00,
2013-08-26 10:25:00,71.1,-21.7,30.35,NW,320,2.9,4.7,2,0.00,CLR,,0.00,WeatherDisplay:10.37,2013-08-26 14:25:00,
2013-08-26 10:26:00,71.0,-21.8,30.35,NNW,330,2.5,6.9,2,0.00,CLR,,0.00,WeatherDisplay:10.37,2013-08-26 14:26:00,
2013-08-26 10:28:00,71.1,-21.7,30.34,NNW,330,0.0,0.0,2,0.00,CLR,,0.00,WeatherDisplay:10.37,2013-08-26 14:28:00,
2013-08-26 10:30:00,71.4,-21.5,30.34,NNW,330,0.0,0.0,2,0.00,CLR,,0.00,WeatherDisplay:10.37,2013-08-26 14:30:00,
2013-08-26 10:31:00,71.7,-21.4,30.34,NNW,330,0.0,0.0,2,0.00,CLR,,0.00,WeatherDisplay:10.37,2013-08-26 14:31:00,
2013-08-26 10:34:00,72.1,-21.1,30.34,NNW,335,3.6,5.8,2,0.00,CLR,,0.00,WeatherDisplay:10.37,2013-08-26 14:34:00,
2013-08-26 10:35:00,72.4,-20.9,30.34,NNW,335,0.0,3.5,2,0.00,CLR,,0.00,WeatherDisplay:10.37,2013-08-26 14:35:00,
2013-08-26 10:36:00,72.9,-20.6,30.34,WNW,296,0.8,3.4,2,0.00,CLR,,0.00,WeatherDisplay:10.37,2013-08-26 14:36:00,
2013-08-26 10:39:00,73.2,-20.4,30.34,NW,305,0.0,0.0,2,0.00,CLR,,0.00,WeatherDisplay:10.37,2013-08-26 14:39:00,
2013-08-26 10:40:00,73.1,-20.4,30.34,NW,318,2.0,5.8,2,0.00,CLR,,0.00,WeatherDisplay:10.37,2013-08-26 14:40:00,
2013-08-26 10:41:00,73.4,-20.3,30.34,NW,316,1.7,6.9,2,0.00,CLR,,0.00,WeatherDisplay:10.37,2013-08-26 14:41:00,
2013-08-26 10:42:00,73.3,-20.3,30.34,WNW,292,2.5,7.1,2,0.00,CLR,,0.00,WeatherDisplay:10.37,2013-08-26 14:42:00,
2013-08-26 10:44:00,72.9,-20.6,30.34,NW,315,1.7,6.9,2,0.00,CLR,,0.00,WeatherDisplay:10.37,2013-08-26 14:44:00,
2013-08-26 10:45:00,73.1,-20.4,30.34,NW,315,0.0,0.0,2,0.00,CLR,,0.00,WeatherDisplay:10.37,2013-08-26 14:45:00,
2013-08-26 10:46:00,72.9,-20.6,30.34,North,353,3.5,5.8,2,0.00,CLR,,0.00,WeatherDisplay:10.37,2013-08-26 14:46:00,
2013-08-26 10:47:00,72.6,-20.8,30.34,North,353,1.3,5.8,2,0.00,CLR,,0.00,WeatherDisplay:10.37,2013-08-26 14:47:00,
2013-08-26 10:49:00,73.0,-20.5,30.34,NW,308,3.8,6.9,2,0.00,CLR,,0.00,WeatherDisplay:10.37,2013-08-26 14:49:00,
2013-08-26 10:50:00,73.0,-20.5,30.34,WNW,294,1.3,5.8,2,0.00,CLR,,0.00,WeatherDisplay:10.37,2013-08-26 14:50:00,
2013-08-26 10:52:00,73.7,-20.1,30.33,WNW,294,0.0,0.0,2,0.00,CLR,,0.00,WeatherDisplay:10.37,2013-08-26 14:52:00,
2013-08-26 10:54:00,74.1,-19.8,30.33,WNW,294,0.0,0.0,2,0.00,CLR,,0.00,WeatherDisplay:10.37,2013-08-26 14:54:00,
2013-08-26 10:55:00,73.8,-20.0,30.33,North,4,0.4,3.5,2,0.00,CLR,,0.00,WeatherDisplay:10.37,2013-08-26 14:55:00,
2013-08-26 10:57:00,74.2,-19.7,30.33,NNE,18,0.5,0.0,2,0.00,CLR,,0.00,WeatherDisplay:10.37,2013-08-26 14:57:00,
2013-08-26 10:59:00,74.1,-19.8,30.33,NNE,18,0.5,2.3,2,0.00,CLR,,0.00,WeatherDisplay:10.37,2013-08-26 14:59:00,
2013-08-26 11:00:00,74.2,-19.7,30.33,NNE,18,0.0,2.3,2,0.00,CLR,,0.00,WeatherDisplay:10.37,2013-08-26 15:00:00,
2013-08-26 11:02:00,74.2,-19.7,30.33,NW,312,1.1,5.2,2,0.00,CLR,,0.00,WeatherDisplay:10.37,2013-08-26 15:02:00,
2013-08-26 11:04:00,74.2,-19.7,30.33,NW,304,3.5,5.8,2,0.00,CLR,,0.00,WeatherDisplay:10.37,2013-08-26 15:04:00,
2013-08-26 11:05:00,74.2,-19.7,30.33,West,270,0.9,5.8,2,0.00,CLR,,0.00,WeatherDisplay:10.37,2013-08-26 15:05:00,
2013-08-26 11:06:00,74.2,-19.7,30.33,West,270,0.0,3.5,2,0.00,CLR,,0.00,WeatherDisplay:10.37,2013-08-26 15:06:00,
2013-08-26 11:07:00,74.2,-19.7,30.33,WSW,256,2.5,6.9,2,0.00,CLR,,0.00,WeatherDisplay:10.37,2013-08-26 15:07:00,
2013-08-26 11:09:00,74.2,-19.7,30.33,SW,233,0.0,0.0,2,0.00,CLR,,0.00,WeatherDisplay:10.37,2013-08-26 15:09:00,
2013-08-26 11:11:00,74.2,-19.7,30.33,WNW,285,1.5,4.6,2,0.00,CLR,,0.00,WeatherDisplay:10.37,2013-08-26 15:11:00,
2013-08-26 11:12:00,74.2,-19.7,30.33,NW,320,5.1,5.8,2,0.00,CLR,,0.00,WeatherDisplay:10.37,2013-08-26 15:12:00,
2013-08-26 11:13:00,74.2,-19.7,30.33,WSW,246,4.6,6.9,2,0.00,CLR,,0.00,WeatherDisplay:10.37,2013-08-26 15:13:00,
2013-08-26 11:14:00,74.2,-19.7,30.32,WSW,237,2.8,6.9,2,0.00,CLR,,0.00,WeatherDisplay:10.37,2013-08-26 15:14:00,
2013-08-26 11:16:00,74.2,-19.7,30.32,WNW,292,0.0,0.0,2,0.00,CLR,,0.00,WeatherDisplay:10.37,2013-08-26 15:16:00,
2013-08-26 11:17:00,74.4,-19.6,30.32,SW,236,0.9,3.5,2,0.00,CLR,,0.00,WeatherDisplay:10.37,2013-08-26 15:17:00,
2013-08-26 11:18:00,74.7,-19.4,30.32,SW,236,0.1,3.5,2,0.00,CLR,,0.00,WeatherDisplay:10.37,2013-08-26 15:18:00,
2013-08-26 11:19:00,75.0,-19.2,30.32,SW,236,0.0,3.5,2,0.00,CLR,,0.00,WeatherDisplay:10.37,2013-08-26 15:19:00,
2013-08-26 11:21:00,75.2,-19.1,30.32,NW,311,2.3,3.3,2,0.00,CLR,,0.00,WeatherDisplay:10.37,2013-08-26 15:21:00,
2013-08-26 11:23:00,75.7,-18.8,30.32,SW,236,0.0,5.8,2,0.00,CLR,,0.00,WeatherDisplay:10.37,2013-08-26 15:23:00,
2013-08-26 11:24:00,75.2,-19.1,30.32,SW,236,0.0,0.0,2,0.00,CLR,,0.00,WeatherDisplay:10.37,2013-08-26 15:24:00,
2013-08-26 11:26:00,74.7,-19.4,30.32,NNW,332,4.7,6.9,2,0.00,CLR,,0.00,WeatherDisplay:10.37,2013-08-26 15:26:00,
2013-08-26 11:28:00,74.2,-19.7,30.32,North,360,2.4,5.8,2,0.00,CLR,,0.00,WeatherDisplay:10.37,2013-08-26 15:28:00,
2013-08-26 11:29:00,74.2,-19.7,30.32,North,360,0.0,4.6,2,0.00,CLR,,0.00,WeatherDisplay:10.37,2013-08-26 15:29:00,
2013-08-26 11:31:00,74.6,-19.5,30.32,NW,304,1.5,4.6,2,0.00,CLR,,0.00,WeatherDisplay:10.37,2013-08-26 15:31:00,
2013-08-26 11:32:00,74.6,-19.5,30.32,NW,304,0.0,4.6,2,0.00,CLR,,0.00,WeatherDisplay:10.37,2013-08-26 15:32:00,
2013-08-26 11:33:00,74.6,-19.5,30.32,NW,304,0.0,0.0,2,0.00,CLR,,0.00,WeatherDisplay:10.37,2013-08-26 15:33:00,
2013-08-26 11:34:00,74.7,-19.4,30.32,North,354,0.6,5.3,2,0.00,CLR,,0.00,WeatherDisplay:10.37,2013-08-26 15:34:00,
2013-08-26 11:36:00,74.8,-19.3,30.32,NNW,339,0.4,5.8,2,0.00,CLR,,0.00,WeatherDisplay:10.37,2013-08-26 15:36:00,
2013-08-26 11:37:00,74.9,-19.3,30.32,NNW,339,0.0,3.5,2,0.00,CLR,,0.00,WeatherDisplay:10.37,2013-08-26 15:37:00,
2013-08-26 11:39:00,75.3,-19.0,30.32,NNW,339,0.0,0.0,2,0.00,CLR,,0.00,WeatherDisplay:10.37,2013-08-26 15:39:00,
2013-08-26 11:40:00,75.4,-19.0,30.32,NNW,339,0.0,0.0,2,0.00,CLR,,0.00,WeatherDisplay:10.37,2013-08-26 15:40:00,
2013-08-26 11:42:00,75.4,-19.0,30.31,NW,311,5.8,6.9,2,0.00,CLR,,0.00,WeatherDisplay:10.37,2013-08-26 15:42:00,
2013-08-26 11:44:00,75.3,-19.0,30.31,North,1,0.3,4.6,2,0.00,CLR,,0.00,WeatherDisplay:10.37,2013-08-26 15:44:00,
2013-08-26 11:45:00,75.4,-19.0,30.31,North,1,0.0,0.0,2,0.00,CLR,,0.00,WeatherDisplay:10.37,2013-08-26 15:45:00,
2013-08-26 11:47:00,75.9,-18.6,30.31,West,274,0.4,0.0,2,0.00,CLR,,0.00,WeatherDisplay:10.37,2013-08-26 15:47:00,
2013-08-26 11:48:00,76.1,-18.5,30.31,SSW,196,3.5,6.9,2,0.00,CLR,,0.00,WeatherDisplay:10.37,2013-08-26 15:48:00,
2013-08-26 11:49:00,76.3,-18.4,30.31,SSW,196,0.0,5.8,2,0.00,CLR,,0.00,WeatherDisplay:10.37,2013-08-26 15:49:00,
2013-08-26 11:50:00,76.8,-18.1,30.30,SSW,196,0.0,0.0,2,0.00,CLR,,0.00,WeatherDisplay:10.37,2013-08-26 15:50:00,
2013-08-26 11:52:00,76.5,-18.2,30.30,SSW,196,0.0,0.0,2,0.00,CLR,,0.00,WeatherDisplay:10.37,2013-08-26 15:52:00,
2013-08-26 11:54:00,76.8,-18.1,30.30,WSW,257,2.5,6.0,2,0.00,CLR,,0.00,WeatherDisplay:10.37,2013-08-26 15:54:00,
2013-08-26 11:55:00,76.8,-18.1,30.30,West,264,1.9,5.8,2,0.00,CLR,,0.00,WeatherDisplay:10.37,2013-08-26 15:55:00,
2013-08-26 11:57:00,76.8,-18.1,30.30,West,264,0.0,0.0,2,0.00,CLR,,0.00,WeatherDisplay:10.37,2013-08-26 15:57:00,
2013-08-26 11:59:00,76.4,-18.3,30.30,NW,311,1.0,6.7,2,0.00,CLR,,0.00,WeatherDisplay:10.37,2013-08-26 15:59:00,
2013-08-26 12:00:00,76.6,-18.2,30.30,NW,313,4.8,6.9,2,0.00,CLR,,0.00,WeatherDisplay:10.37,2013-08-26 16:00:00,
2013-08-26 12:02:00,76.5,-18.2,30.30,WNW,296,0.5,3.5,2,0.00,CLR,,0.00,WeatherDisplay:10.37,2013-08-26 16:02:00,
2013-08-26 12:04:00,76.8,-18.1,30.30,WNW,296,0.0,0.0,2,0.00,CLR,,0.00,WeatherDisplay:10.37,2013-08-26 16:04:00,
2013-08-26 12:05:00,76.7,-18.1,30.31,WNW,296,0.0,0.0,2,0.00,CLR,,0.00,WeatherDisplay:10.37,2013-08-26 16:05:00,
2013-08-26 12:08:00,76.6,-18.2,30.30,NNW,340,2.3,6.3,2,0.00,CLR,,0.00,WeatherDisplay:10.37,2013-08-26 16:08:00,
2013-08-26 12:09:00,76.6,-18.2,30.30,North,354,0.4,6.9,2,0.00,CLR,,0.00,WeatherDisplay:10.37,2013-08-26 16:09:00,
2013-08-26 12:10:00,76.4,-18.3,30.30,North,354,0.0,4.6,2,0.00,CLR,,0.00,WeatherDisplay:10.37,2013-08-26 16:10:00,
2013-08-26 12:13:00,76.2,-18.4,30.30,North,353,2.1,4.9,2,0.00,CLR,,0.00,WeatherDisplay:10.37,2013-08-26 16:13:00,
2013-08-26 12:14:00,76.2,-18.4,30.30,NW,325,2.6,5.8,2,0.00,CLR,,0.00,WeatherDisplay:10.37,2013-08-26 16:14:00,
2013-08-26 12:15:00,76.6,-18.2,30.30,NW,325,0.0,5.8,2,0.00,CLR,,0.00,WeatherDisplay:10.37,2013-08-26 16:15:00,
2013-08-26 12:18:00,77.0,-17.9,30.30,NW,319,2.5,5.8,2,0.00,CLR,,0.00,WeatherDisplay:10.37,2013-08-26 16:18:00,
2013-08-26 12:19:00,76.7,-18.1,30.30,West,270,4.9,5.8,2,0.00,CLR,,0.00,WeatherDisplay:10.37,2013-08-26 16:19:00,
2013-08-26 12:20:00,76.6,-18.2,30.30,WSW,248,2.0,8.1,2,0.00,CLR,,0.00,WeatherDisplay:10.37,2013-08-26 16:20:00,
2013-08-26 12:23:00,76.7,-18.1,30.30,NNW,340,2.0,7.3,2,0.00,CLR,,0.00,WeatherDisplay:10.37,2013-08-26 16:23:00,
2013-08-26 12:24:00,76.9,-18.0,30.30,NW,322,5.2,6.9,2,0.00,CLR,,0.00,WeatherDisplay:10.37,2013-08-26 16:24:00,
2013-08-26 12:25:00,76.8,-18.1,30.30,NW,322,2.0,6.9,2,0.00,CLR,,0.00,WeatherDisplay:10.37,2013-08-26 16:25:00,
2013-08-26 12:29:00,77.0,-17.9,30.30,NW,322,0.0,0.0,2,0.00,CLR,,0.00,WeatherDisplay:10.37,2013-08-26 16:29:00,
2013-08-26 12:30:00,77.2,-17.8,30.30,NW,322,0.0,0.0,2,0.00,CLR,,0.00,WeatherDisplay:10.37,2013-08-26 16:30:00,
2013-08-26 12:34:00,78.0,-17.3,30.30,NW,322,0.0,2.3,2,0.00,CLR,,0.00,WeatherDisplay:10.37,2013-08-26 16:34:00,
2013-08-26 12:35:00,77.3,-17.7,30.30,NW,322,0.0,0.0,2,0.00,CLR,,0.00,WeatherDisplay:10.37,2013-08-26 16:35:00,
2013-08-26 12:36:00,76.8,-18.1,30.29,NW,322,0.0,0.0,2,0.00,CLR,,0.00,WeatherDisplay:10.37,2013-08-26 16:36:00,
2013-08-26 12:39:00,78.1,-17.2,30.29,NW,322,0.0,0.0,2,0.00,CLR,,0.00,WeatherDisplay:10.37,2013-08-26 16:39:00,
2013-08-26 12:40:00,77.8,-17.4,30.29,NW,322,0.0,0.0,2,0.00,CLR,,0.00,WeatherDisplay:10.37,2013-08-26 16:40:00,
2013-08-26 12:41:00,78.7,-16.8,30.29,NW,322,0.0,0.0,2,0.00,CLR,,0.00,WeatherDisplay:10.37,2013-08-26 16:41:00,
2013-08-26 12:44:00,80.1,-15.9,30.29,NW,322,0.0,0.0,2,0.00,CLR,,0.00,WeatherDisplay:10.37,2013-08-26 16:44:00,
2013-08-26 12:45:00,79.9,-16.1,30.29,NW,322,0.0,0.0,2,0.00,CLR,,0.00,WeatherDisplay:10.37,2013-08-26 16:45:00,
2013-08-26 12:46:00,78.3,-17.1,30.29,NW,322,0.0,0.0,2,0.00,CLR,,0.00,WeatherDisplay:10.37,2013-08-26 16:46:00,
2013-08-26 12:49:00,79.4,-16.4,30.28,NW,322,0.0,0.0,2,0.00,CLR,,0.00,WeatherDisplay:10.37,2013-08-26 16:49:00,
2013-08-26 12:50:00,79.4,-16.4,30.28,NW,322,0.0,0.0,2,0.00,CLR,,0.00,WeatherDisplay:10.37,2013-08-26 16:50:00,
2013-08-26 12:51:00,81.4,-15.1,30.28,NW,322,0.0,0.0,2,0.00,CLR,,0.00,WeatherDisplay:10.37,2013-08-26 16:51:00,
2013-08-26 12:55:00,81.4,-15.1,30.28,NW,322,0.0,0.0,2,0.00,CLR,,0.00,WeatherDisplay:10.37,2013-08-26 16:55:00,
2013-08-26 12:56:00,81.5,-15.0,30.28,NW,322,0.0,0.0,2,0.00,CLR,,0.00,WeatherDisplay:10.37,2013-08-26 16:56:00,
2013-08-26 12:57:00,81.6,-15.0,30.28,NW,322,0.0,0.0,2,0.00,CLR,,0.00,WeatherDisplay:10.37,2013-08-26 16:57:00,
2013-08-26 13:00:00,81.9,-14.8,30.28,NW,322,0.0,0.0,2,0.00,CLR,,0.00,WeatherDisplay:10.37,2013-08-26 17:00:00,
2013-08-26 13:01:00,83.4,-13.8,30.28,NW,322,0.0,0.0,2,0.00,CLR,,0.00,WeatherDisplay:10.37,2013-08-26 17:01:00,
2013-08-26 13:02:00,85.4,-12.5,30.28,NW,322,0.0,0.0,2,0.00,CLR,,0.00,WeatherDisplay:10.37,2013-08-26 17:02:00,
2013-08-26 13:05:00,87.5,-11.2,30.28,NW,322,0.0,0.0,2,0.00,CLR,,0.00,WeatherDisplay:10.37,2013-08-26 17:05:00,
2013-08-26 13:06:00,88.2,-10.7,30.28,NW,322,0.0,0.0,2,0.00,CLR,,0.00,WeatherDisplay:10.37,2013-08-26 17:06:00,
2013-08-26 13:07:00,88.2,-10.7,30.28,NW,322,0.0,0.0,2,0.00,CLR,,0.00,WeatherDisplay:10.37,2013-08-26 17:07:00,
2013-08-26 13:10:00,87.5,-11.2,30.28,NW,322,0.0,0.0,2,0.00,CLR,,0.00,WeatherDisplay:10.37,2013-08-26 17:10:00,
2013-08-26 13:11:00,87.0,-11.5,30.28,North,350,1.9,5.8,2,0.00,CLR,,0.00,WeatherDisplay:10.37,2013-08-26 17:11:00,
2013-08-26 13:13:00,83.4,-13.8,30.28,North,360,0.8,5.8,2,0.00,CLR,,0.00,WeatherDisplay:10.37,2013-08-26 17:13:00,
2013-08-26 13:16:00,80.9,-15.4,30.28,NNW,336,1.1,4.6,2,0.00,CLR,,0.00,WeatherDisplay:10.37,2013-08-26 17:16:00,
2013-08-26 13:17:00,80.3,-15.8,30.28,NNW,336,1.1,4.6,2,0.00,CLR,,0.00,WeatherDisplay:10.37,2013-08-26 17:17:00,
2013-08-26 13:18:00,79.4,-16.4,30.28,NNW,336,0.0,0.0,2,0.00,CLR,,0.00,WeatherDisplay:10.37,2013-08-26 17:18:00,
2013-08-26 13:21:00,78.0,-17.3,30.28,North,7,2.9,4.6,2,0.00,CLR,,0.00,WeatherDisplay:10.37,2013-08-26 17:21:00,
2013-08-26 13:22:00,78.4,-17.0,30.28,North,1,2.6,4.6,2,0.00,CLR,,0.00,WeatherDisplay:10.37,2013-08-26 17:22:00,
2013-08-26 13:23:00,77.4,-17.7,30.28,NW,313,1.6,4.6,2,0.00,CLR,,0.00,WeatherDisplay:10.37,2013-08-26 17:23:00,
2013-08-26 13:26:00,78.9,-16.7,30.28,NW,313,0.0,0.0,2,0.00,CLR,,0.00,WeatherDisplay:10.37,2013-08-26 17:26:00,
2013-08-26 13:27:00,78.2,-17.2,30.27,NW,313,0.0,0.0,2,0.00,CLR,,0.00,WeatherDisplay:10.37,2013-08-26 17:27:00,
2013-08-26 13:28:00,78.2,-17.2,30.28,NW,313,0.0,0.0,2,0.00,CLR,,0.00,WeatherDisplay:10.37,2013-08-26 17:28:00,
2013-08-26 13:31:00,79.8,-16.1,30.28,NW,313,0.0,0.0,2,0.00,CLR,,0.00,WeatherDisplay:10.37,2013-08-26 17:31:00,
2013-08-26 13:32:00,79.8,-16.1,30.28,NW,313,0.0,0.0,2,0.00,CLR,,0.00,WeatherDisplay:10.37,2013-08-26 17:32:00,
2013-08-26 13:34:00,81.4,-15.1,30.27,NW,313,0.0,0.0,2,0.00,CLR,,0.00,WeatherDisplay:10.37,2013-08-26 17:34:00,
2013-08-26 13:36:00,82.8,-14.2,30.27,NW,313,0.0,0.0,2,0.00,CLR,,0.00,WeatherDisplay:10.37,2013-08-26 17:36:00,
2013-08-26 13:37:00,82.8,-14.2,30.27,NW,313,0.0,0.0,2,0.00,CLR,,0.00,WeatherDisplay:10.37,2013-08-26 17:37:00,
2013-08-26 13:39:00,82.4,-14.4,30.27,NW,318,2.0,8.4,2,0.00,CLR,,0.00,WeatherDisplay:10.37,2013-08-26 17:39:00,
2013-08-26 13:41:00,80.4,-15.7,30.27,NNW,346,2.1,4.6,2,0.00,CLR,,0.00,WeatherDisplay:10.37,2013-08-26 17:41:00,
2013-08-26 13:42:00,80.3,-15.8,30.27,NNW,346,1.9,4.6,2,0.00,CLR,,0.00,WeatherDisplay:10.37,2013-08-26 17:42:00,
2013-08-26 13:44:00,79.3,-16.4,30.26,NNW,346,0.0,0.0,2,0.00,CLR,,0.00,WeatherDisplay:10.37,2013-08-26 17:44:00,
2013-08-26 13:46:00,80.0,-16.0,30.26,NNW,330,2.6,5.8,2,0.00,CLR,,0.00,WeatherDisplay:10.37,2013-08-26 17:46:00,
2013-08-26 13:47:00,80.1,-15.9,30.26,NNW,330,2.2,5.8,2,0.00,CLR,,0.00,WeatherDisplay:10.37,2013-08-26 17:47:00,
2013-08-26 13:48:00,80.4,-15.7,30.26,NNW,330,0.0,5.8,2,0.00,CLR,,0.00,WeatherDisplay:10.37,2013-08-26 17:48:00,
2013-08-26 13:49:00,80.3,-15.8,30.26,NNW,330,0.0,0.0,2,0.00,CLR,,0.00,WeatherDisplay:10.37,2013-08-26 17:49:00,
2013-08-26 13:52:00,81.1,-15.3,30.26,North,352,2.4,6.9,2,0.00,CLR,,0.00,WeatherDisplay:10.37,2013-08-26 17:52:00,
2013-08-26 13:53:00,80.4,-15.7,30.26,North,352,0.0,6.9,2,0.00,CLR,,0.00,WeatherDisplay:10.37,2013-08-26 17:53:00,
2013-08-26 13:54:00,79.1,-16.6,30.26,North,10,0.0,3.5,2,0.00,CLR,,0.00,WeatherDisplay:10.37,2013-08-26 17:54:00,
2013-08-26 13:57:00,79.4,-16.4,30.26,North,10,0.0,0.0,2,0.00,CLR,,0.00,WeatherDisplay:10.37,2013-08-26 17:57:00,
2013-08-26 13:58:00,79.2,-16.5,30.26,North,10,0.0,0.0,2,0.00,CLR,,0.00,WeatherDisplay:10.37,2013-08-26 17:58:00,
2013-08-26 13:59:00,79.9,-16.1,30.26,North,10,0.0,0.0,2,0.00,CLR,,0.00,WeatherDisplay:10.37,2013-08-26 17:59:00,
2013-08-26 14:02:00,81.4,-15.1,30.26,North,10,0.0,0.0,2,0.00,CLR,,0.00,WeatherDisplay:10.37,2013-08-26 18:02:00,
2013-08-26 14:03:00,80.3,-15.8,30.26,North,10,0.0,0.0,2,0.00,CLR,,0.00,WeatherDisplay:10.37,2013-08-26 18:03:00,
2013-08-26 14:04:00,81.9,-14.8,30.26,SSE,168,1.5,3.5,2,0.00,CLR,,0.00,WeatherDisplay:10.37,2013-08-26 18:04:00,
2013-08-26 14:07:00,82.8,-14.2,30.26,SSE,168,0.0,0.0,2,0.00,CLR,,0.00,WeatherDisplay:10.37,2013-08-26 18:07:00,
2013-08-26 14:08:00,83.0,-14.1,30.26,SSE,168,0.0,0.0,2,0.00,CLR,,0.00,WeatherDisplay:10.37,2013-08-26 18:08:00,
2013-08-26 14:09:00,84.1,-13.4,30.26,SSE,168,0.0,0.0,2,0.00,CLR,,0.00,WeatherDisplay:10.37,2013-08-26 18:09:00,
2013-08-26 14:10:00,83.5,-13.7,30.26,SSE,168,0.0,0.0,2,0.00,CLR,,0.00,WeatherDisplay:10.37,2013-08-26 18:10:00,
2013-08-26 14:13:00,86.2,-12.0,30.26,SSE,150,1.2,4.6,2,0.00,CLR,,0.00,WeatherDisplay:10.37,2013-08-26 18:13:00,
2013-08-26 14:14:00,87.5,-11.2,30.26,SSE,150,0.0,0.0,2,0.00,CLR,,0.00,WeatherDisplay:10.37,2013-08-26 18:14:00,
2013-08-26 14:15:00,86.2,-12.0,30.26,North,360,1.4,5.8,2,0.00,CLR,,0.00,WeatherDisplay:10.37,2013-08-26 18:15:00,
2013-08-26 14:18:00,84.5,-13.1,30.25,WNW,288,1.3,9.2,2,0.00,CLR,,0.00,WeatherDisplay:10.37,2013-08-26 18:18:00,
2013-08-26 14:19:00,83.0,-14.1,30.25,NW,318,5.1,6.5,2,0.00,CLR,,0.00,WeatherDisplay:10.37,2013-08-26 18:19:00,
2013-08-26 14:20:00,80.5,-15.7,30.25,NW,306,6.2,8.1,2,0.00,CLR,,0.00,WeatherDisplay:10.37,2013-08-26 18:20:00,
2013-08-26 14:23:00,78.9,-16.7,30.25,NW,318,3.1,5.2,2,0.00,CLR,,0.00,WeatherDisplay:10.37,2013-08-26 18:23:00,
2013-08-26 14:24:00,78.4,-17.0,30.25,WNW,291,0.5,4.6,2,0.00,CLR,,0.00,WeatherDisplay:10.37,2013-08-26 18:24:00,
2013-08-26 14:25:00,79.0,-16.6,30.25,West,268,0.3,4.9,2,0.00,CLR,,0.00,WeatherDisplay:10.37,2013-08-26 18:25:00,
2013-08-26 14:28:00,80.5,-15.7,30.25,West,272,0.0,4.6,2,0.00,CLR,,0.00,WeatherDisplay:10.37,2013-08-26 18:28:00,
2013-08-26 14:29:00,81.0,-15.3,30.25,West,272,0.0,0.0,2,0.00,CLR,,0.00,WeatherDisplay:10.37,2013-08-26 18:29:00,
2013-08-26 14:30:00,80.9,-15.4,30.25,West,272,0.0,0.0,2,0.00,CLR,,0.00,WeatherDisplay:10.37,2013-08-26 18:30:00,
2013-08-26 14:33:00,80.9,-15.4,30.25,WSW,237,3.0,6.9,2,0.00,CLR,,0.00,WeatherDisplay:10.37,2013-08-26 18:33:00,
2013-08-26 14:34:00,82.0,-14.7,30.25,WSW,237,0.0,0.0,2,0.00,CLR,,0.00,WeatherDisplay:10.37,2013-08-26 18:34:00,
2013-08-26 14:35:00,82.0,-14.7,30.25,WSW,237,0.0,0.0,2,0.00,CLR,,0.00,WeatherDisplay:10.37,2013-08-26 18:35:00,
2013-08-26 14:38:00,83.1,-14.0,30.24,WNW,295,0.7,2.3,2,0.00,CLR,,0.00,WeatherDisplay:10.37,2013-08-26 18:38:00,
2013-08-26 14:39:00,83.5,-13.7,30.24,WNW,295,0.0,0.0,2,0.00,CLR,,0.00,WeatherDisplay:10.37,2013-08-26 18:39:00,
2013-08-26 14:40:00,83.6,-13.7,30.24,North,360,1.0,3.5,2,0.00,CLR,,0.00,WeatherDisplay:10.37,2013-08-26 18:40:00,
2013-08-26 14:43:00,80.9,-15.4,30.24,North,360,0.0,0.0,2,0.00,CLR,,0.00,WeatherDisplay:10.37,2013-08-26 18:43:00,
2013-08-26 14:44:00,80.4,-15.7,30.24,North,360,1.6,5.8,2,0.00,CLR,,0.00,WeatherDisplay:10.37,2013-08-26 18:44:00,
2013-08-26 14:45:00,80.1,-15.9,30.24,North,360,0.1,1.1,2,0.00,CLR,,0.00,WeatherDisplay:10.37,2013-08-26 18:45:00,
2013-08-26 14:46:00,79.9,-16.1,30.24,North,360,0.0,1.1,2,0.00,CLR,,0.00,WeatherDisplay:10.37,2013-08-26 18:46:00,
2013-08-26 14:48:00,81.2,-15.2,30.24,North,360,0.0,0.0,2,0.00,CLR,,0.00,WeatherDisplay:10.37,2013-08-26 18:48:00,
2013-08-26 14:49:00,81.9,-14.8,30.24,North,360,0.0,0.0,2,0.00,CLR,,0.00,WeatherDisplay:10.37,2013-08-26 18:49:00,
2013-08-26 14:51:00,83.8,-13.6,30.23,North,360,0.0,0.0,2,0.00,CLR,,0.00,WeatherDisplay:10.37,2013-08-26 18:51:00,
2013-08-26 14:53:00,87.3,-11.3,30.23,North,360,0.0,0.0,2,0.00,CLR,,0.00,WeatherDisplay:10.37,2013-08-26 18:53:00,
2013-08-26 14:54:00,87.9,-10.9,30.23,North,360,0.0,0.0,2,0.00,CLR,,0.00,WeatherDisplay:10.37,2013-08-26 18:54:00,
2013-08-26 14:56:00,89.2,-10.1,30.23,North,360,0.0,0.0,2,0.00,CLR,,0.00,WeatherDisplay:10.37,2013-08-26 18:56:00,
2013-08-26 14:58:00,89.8,-9.7,30.23,North,360,0.0,0.0,2,0.00,CLR,,0.00,WeatherDisplay:10.37,2013-08-26 18:58:00,
2013-08-26 14:59:00,89.2,-10.1,30.23,North,360,0.1,3.5,2,0.00,CLR,,0.00,WeatherDisplay:10.37,2013-08-26 18:59:00,
2013-08-26 15:01:00,88.2,-10.7,30.23,West,267,0.0,4.6,2,0.00,CLR,,0.00,WeatherDisplay:10.37,2013-08-26 19:01:00,
2013-08-26 15:03:00,87.7,-11.1,30.22,West,267,0.0,0.0,2,0.00,CLR,,0.00,WeatherDisplay:10.37,2013-08-26 19:03:00,
2013-08-26 15:04:00,87.9,-10.9,30.22,West,267,0.0,0.0,2,0.00,CLR,,0.00,WeatherDisplay:10.37,2013-08-26 19:04:00,
2013-08-26 15:06:00,88.0,-10.9,30.22,West,267,0.0,0.0,2,0.00,CLR,,0.00,WeatherDisplay:10.37,2013-08-26 19:06:00,
2013-08-26 15:07:00,87.9,-10.9,30.22,West,267,0.0,0.0,2,0.00,CLR,,0.00,WeatherDisplay:10.37,2013-08-26 19:07:00,
2013-08-26 15:08:00,86.7,-11.7,30.22,West,267,0.0,0.0,2,0.00,CLR,,0.00,WeatherDisplay:10.37,2013-08-26 19:08:00,
2013-08-26 15:09:00,87.1,-11.4,30.22,West,267,0.0,0.0,2,0.00,CLR,,0.00,WeatherDisplay:10.37,2013-08-26 19:09:00,
2013-08-26 15:10:00,84.6,-13.0,30.22,West,267,0.0,0.0,2,0.00,CLR,,0.00,WeatherDisplay:10.37,2013-08-26 19:10:00,
2013-08-26 15:11:00,84.9,-12.8,30.22,West,267,0.0,0.0,2,0.00,CLR,,0.00,WeatherDisplay:10.37,2013-08-26 19:11:00,
2013-08-26 15:12:00,84.4,-13.2,30.22,West,267,0.0,0.0,2,0.00,CLR,,0.00,WeatherDisplay:10.37,2013-08-26 19:12:00,
2013-08-26 15:13:00,85.8,-12.3,30.22,West,267,0.0,0.0,2,0.00,CLR,,0.00,WeatherDisplay:10.37,2013-08-26 19:13:00,
2013-08-26 15:14:00,85.8,-12.3,30.22,West,267,0.0,0.0,2,0.00,CLR,,0.00,WeatherDisplay:10.37,2013-08-26 19:14:00,
2013-08-26 15:15:00,87.5,-11.2,30.22,West,267,0.0,0.0,2,0.00,CLR,,0.00,WeatherDisplay:10.37,2013-08-26 19:15:00,
2013-08-26 15:16:00,86.8,-11.6,30.22,West,267,0.0,0.0,2,0.00,CLR,,0.00,WeatherDisplay:10.37,2013-08-26 19:16:00,
2013-08-26 15:17:00,87.4,-11.2,30.22,West,267,0.0,0.0,2,0.00,CLR,,0.00,WeatherDisplay:10.37,2013-08-26 19:17:00,
2013-08-26 15:19:00,87.9,-10.9,30.22,West,267,0.0,0.0,2,0.00,CLR,,0.00,WeatherDisplay:10.37,2013-08-26 19:19:00,
2013-08-26 15:20:00,87.9,-10.9,30.22,West,267,0.0,0.0,2,0.00,CLR,,0.00,WeatherDisplay:10.37,2013-08-26 19:20:00,
2013-08-26 15:22:00,88.2,-10.7,30.22,West,267,0.0,0.0,2,0.00,CLR,,0.00,WeatherDisplay:10.37,2013-08-26 19:22:00,
2013-08-26 15:25:00,84.6,-13.0,30.21,North,360,0.0,0.0,2,0.00,CLR,,0.00,WeatherDisplay:10.37,2013-08-26 19:25:00,
2013-08-26 15:27:00,81.9,-14.8,30.21,NW,313,3.1,9.2,2,0.00,CLR,,0.00,WeatherDisplay:10.37,2013-08-26 19:27:00,
2013-08-26 15:30:00,80.6,-15.6,30.21,NW,318,3.5,5.8,2,0.00,CLR,,0.00,WeatherDisplay:10.37,2013-08-26 19:30:00,
2013-08-26 15:32:00,80.5,-15.7,30.21,WNW,288,0.1,4.6,2,0.00,CLR,,0.00,WeatherDisplay:10.37,2013-08-26 19:32:00,
2013-08-26 15:33:00,81.4,-15.1,30.21,WNW,288,0.0,0.0,2,0.00,CLR,,0.00,WeatherDisplay:10.37,2013-08-26 19:33:00,
2013-08-26 15:35:00,80.9,-15.4,30.21,NW,323,1.7,5.8,2,0.00,CLR,,0.00,WeatherDisplay:10.37,2013-08-26 19:35:00,
2013-08-26 15:37:00,82.8,-14.2,30.21,South,172,5.0,6.9,2,0.00,CLR,,0.00,WeatherDisplay:10.37,2013-08-26 19:37:00,
2013-08-26 15:38:00,84.2,-13.3,30.21,South,169,0.7,4.6,2,0.00,CLR,,0.00,WeatherDisplay:10.37,2013-08-26 19:38:00,
2013-08-26 15:40:00,85.3,-12.6,30.21,South,169,0.0,0.0,2,0.00,CLR,,0.00,WeatherDisplay:10.37,2013-08-26 19:40:00,
2013-08-26 15:41:00,87.3,-11.3,30.21,South,169,0.0,0.0,2,0.00,CLR,,0.00,WeatherDisplay:10.37,2013-08-26 19:41:00,
2013-08-26 15:42:00,88.5,-10.5,30.21,South,169,0.0,0.0,2,0.00,CLR,,0.00,WeatherDisplay:10.37,2013-08-26 19:42:00,
2013-08-26 15:43:00,88.0,-10.9,30.21,NNW,336,1.5,4.6,2,0.00,CLR,,0.00,WeatherDisplay:10.37,2013-08-26 19:43:00,
2013-08-26 15:45:00,87.0,-11.5,30.21,NNW,336,0.0,0.0,2,0.00,CLR,,0.00,WeatherDisplay:10.37,2013-08-26 19:45:00,
2013-08-26 15:46:00,88.0,-10.9,30.21,NNW,336,0.0,0.0,2,0.00,CLR,,0.00,WeatherDisplay:10.37,2013-08-26 19:46:00,
2013-08-26 15:47:00,88.9,-10.3,30.20,NNW,336,0.0,0.0,2,0.00,CLR,,0.00,WeatherDisplay:10.37,2013-08-26 19:47:00,
2013-08-26 15:48:00,89.1,-10.2,30.21,NNW,336,0.0,0.0,2,0.00,CLR,,0.00,WeatherDisplay:10.37,2013-08-26 19:48:00,
2013-08-26 15:50:00,89.8,-9.7,30.20,NNW,336,0.0,0.0,2,0.00,CLR,,0.00,WeatherDisplay:10.37,2013-08-26 19:50:00,
2013-08-26 15:51:00,90.3,-9.4,30.20,NNW,336,0.0,0.0,2,0.00,CLR,,0.00,WeatherDisplay:10.37,2013-08-26 19:51:00,
2013-08-26 15:52:00,91.3,-8.8,30.20,NNW,336,0.0,0.0,2,0.00,CLR,,0.00,WeatherDisplay:10.37,2013-08-26 19:52:00,
2013-08-26 15:53:00,91.3,-8.8,30.20,NNW,336,0.0,0.0,2,0.00,CLR,,0.00,WeatherDisplay:10.37,2013-08-26 19:53:00,
2013-08-26 15:55:00,91.2,-8.8,30.20,NNW,336,0.0,0.0,2,0.00,CLR,,0.00,WeatherDisplay:10.37,2013-08-26 19:55:00,
2013-08-26 15:56:00,91.8,-8.4,30.20,NNW,336,0.0,0.0,2,0.00,CLR,,0.00,WeatherDisplay:10.37,2013-08-26 19:56:00,
2013-08-26 15:58:00,91.4,-8.7,30.20,NNW,336,0.0,0.0,2,0.00,CLR,,0.00,WeatherDisplay:10.37,2013-08-26 19:58:00,
2013-08-26 16:00:00,92.9,-7.7,30.20,NNW,336,0.0,0.0,2,0.00,CLR,,0.00,WeatherDisplay:10.37,2013-08-26 20:00:00,
2013-08-26 16:01:00,92.8,-7.8,30.20,NNW,336,0.0,0.0,2,0.00,CLR,,0.00,WeatherDisplay:10.37,2013-08-26 20:01:00,
2013-08-26 16:03:00,92.1,-8.2,30.20,NNW,336,0.0,0.0,2,0.00,CLR,,0.00,WeatherDisplay:10.37,2013-08-26 20:03:00,
2013-08-26 16:05:00,92.4,-8.1,30.20,NNW,336,0.0,0.0,2,0.00,CLR,,0.00,WeatherDisplay:10.37,2013-08-26 20:05:00,
2013-08-26 16:06:00,92.0,-8.3,30.20,NNW,336,0.0,0.0,2,0.00,CLR,,0.00,WeatherDisplay:10.37,2013-08-26 20:06:00,
2013-08-26 16:08:00,90.4,-9.3,30.20,West,261,0.7,5.8,2,0.00,CLR,,0.00,WeatherDisplay:10.37,2013-08-26 20:08:00,
2013-08-26 16:09:00,90.2,-9.5,30.20,West,261,0.4,5.8,2,0.00,CLR,,0.00,WeatherDisplay:10.37,2013-08-26 20:09:00,
2013-08-26 16:10:00,90.1,-9.5,30.20,West,261,0.0,0.0,2,0.00,CLR,,0.00,WeatherDisplay:10.37,2013-08-26 20:10:00,
2013-08-26 16:11:00,90.1,-9.5,30.20,West,260,0.1,4.7,2,0.00,CLR,,0.00,WeatherDisplay:10.37,2013-08-26 20:11:00,
2013-08-26 16:13:00,88.4,-10.6,30.20,West,277,0.1,6.9,2,0.00,CLR,,0.00,WeatherDisplay:10.37,2013-08-26 20:13:00,
2013-08-26 16:14:00,88.3,-10.7,30.20,West,277,0.0,0.0,2,0.00,CLR,,0.00,WeatherDisplay:10.37,2013-08-26 20:14:00,
2013-08-26 16:15:00,88.4,-10.6,30.20,SSE,150,3.2,4.6,2,0.00,CLR,,0.00,WeatherDisplay:10.37,2013-08-26 20:15:00,
2013-08-26 16:17:00,88.4,-10.6,30.19,WSW,258,1.1,5.8,2,0.00,CLR,,0.00,WeatherDisplay:10.37,2013-08-26 20:17:00,
2013-08-26 16:18:00,87.2,-11.4,30.19,SSW,199,4.5,5.8,2,0.00,CLR,,0.00,WeatherDisplay:10.37,2013-08-26 20:18:00,
2013-08-26 16:19:00,86.2,-12.0,30.19,South,185,3.1,8.1,2,0.00,CLR,,0.00,WeatherDisplay:10.37,2013-08-26 20:19:00,
2013-08-26 16:21:00,86.5,-11.8,30.19,SSW,196,0.0,5.8,2,0.00,CLR,,0.00,WeatherDisplay:10.37,2013-08-26 20:21:00,
2013-08-26 16:22:00,86.1,-12.1,30.19,SSW,196,0.0,0.0,2,0.00,CLR,,0.00,WeatherDisplay:10.37,2013-08-26 20:22:00,
2013-08-26 16:23:00,84.8,-12.9,30.19,WNW,287,4.1,5.8,2,0.00,CLR,,0.00,WeatherDisplay:10.37,2013-08-26 20:23:00,
2013-08-26 16:24:00,84.9,-12.8,30.19,WNW,287,0.8,5.8,2,0.00,CLR,,0.00,WeatherDisplay:10.37,2013-08-26 20:24:00,
2013-08-26 16:26:00,84.9,-12.8,30.19,WNW,287,0.0,0.0,2,0.00,CLR,,0.00,WeatherDisplay:10.37,2013-08-26 20:26:00,
2013-08-26 16:27:00,87.4,-11.2,30.19,WNW,287,0.0,0.0,2,0.00,CLR,,0.00,WeatherDisplay:10.37,2013-08-26 20:27:00,
2013-08-26 16:28:00,88.3,-10.7,30.19,South,172,4.6,8.1,2,0.00,CLR,,0.00,WeatherDisplay:10.37,2013-08-26 20:28:00,
2013-08-26 16:29:00,88.8,-10.3,30.19,SSW,195,2.5,6.9,2,0.00,CLR,,0.00,WeatherDisplay:10.37,2013-08-26 20:29:00,
2013-08-26 16:31:00,89.0,-10.2,30.19,SSW,192,0.0,4.6,2,0.00,CLR,,0.00,WeatherDisplay:10.37,2013-08-26 20:31:00,
2013-08-26 16:32:00,89.1,-10.2,30.19,SSW,192,0.0,0.0,2,0.00,CLR,,0.00,WeatherDisplay:10.37,2013-08-26 20:32:00,
2013-08-26 16:34:00,88.9,-10.3,30.19,SSW,192,0.0,0.0,2,0.00,CLR,,0.00,WeatherDisplay:10.37,2013-08-26 20:34:00,
2013-08-26 16:37:00,86.7,-11.7,30.19,SSW,192,0.0,0.0,2,0.00,CLR,,0.00,WeatherDisplay:10.37,2013-08-26 20:37:00,
2013-08-26 16:38:00,86.6,-11.8,30.19,SSW,192,0.0,0.0,2,0.00,CLR,,0.00,WeatherDisplay:10.37,2013-08-26 20:38:00,
2013-08-26 16:39:00,87.2,-11.4,30.19,SSW,192,0.0,0.0,2,0.00,CLR,,0.00,WeatherDisplay:10.37,2013-08-26 20:39:00,
2013-08-26 16:40:00,87.0,-11.5,30.19,SSW,192,0.0,0.0,2,0.00,CLR,,0.00,WeatherDisplay:10.37,2013-08-26 20:40:00,
2013-08-26 16:42:00,87.7,-11.1,30.19,SSE,167,2.1,6.0,2,0.00,CLR,,0.00,WeatherDisplay:10.37,2013-08-26 20:42:00,
2013-08-26 16:43:00,88.4,-10.6,30.19,SE,126,3.7,6.9,2,0.00,CLR,,0.00,WeatherDisplay:10.37,2013-08-26 20:43:00,
2013-08-26 16:44:00,88.2,-10.7,30.19,SE,126,1.2,4.6,2,0.00,CLR,,0.00,WeatherDisplay:10.37,2013-08-26 20:44:00,
2013-08-26 16:45:00,89.0,-10.2,30.19,SE,126,0.0,0.0,2,0.00,CLR,,0.00,WeatherDisplay:10.37,2013-08-26 20:45:00,
2013-08-26 16:47:00,89.4,-10.0,30.19,SE,126,0.0,0.0,2,0.00,CLR,,0.00,WeatherDisplay:10.37,2013-08-26 20:47:00,
2013-08-26 16:48:00,89.6,-9.8,30.18,SE,126,0.0,0.0,2,0.00,CLR,,0.00,WeatherDisplay:10.37,2013-08-26 20:48:00,
2013-08-26 16:49:00,89.7,-9.8,30.18,SE,126,0.0,0.0,2,0.00,CLR,,0.00,WeatherDisplay:10.37,2013-08-26 20:49:00,
2013-08-26 16:50:00,89.5,-9.9,30.18,SE,126,0.0,0.0,2,0.00,CLR,,0.00,WeatherDisplay:10.37,2013-08-26 20:50:00,
2013-08-26 16:52:00,89.7,-9.8,30.18,East,92,4.2,6.9,2,0.00,CLR,,0.00,WeatherDisplay:10.37,2013-08-26 20:52:00,
2013-08-26 16:53:00,89.2,-10.1,30.18,East,96,2.6,6.9,2,0.00,CLR,,0.00,WeatherDisplay:10.37,2013-08-26 20:53:00,
2013-08-26 16:54:00,88.8,-10.3,30.18,East,96,2.2,6.9,2,0.00,CLR,,0.00,WeatherDisplay:10.37,2013-08-26 20:54:00,
2013-08-26 16:55:00,89.0,-10.2,30.18,East,92,0.0,0.0,2,0.00,CLR,,0.00,WeatherDisplay:10.37,2013-08-26 20:55:00,
2013-08-26 16:58:00,89.0,-10.2,30.18,SSE,160,4.7,5.8,2,0.00,CLR,,0.00,WeatherDisplay:10.37,2013-08-26 20:58:00,
2013-08-26 16:59:00,89.8,-9.7,30.18,ESE,123,1.5,6.0,2,0.00,CLR,,0.00,WeatherDisplay:10.37,2013-08-26 20:59:00,
2013-08-26 17:00:00,89.4,-10.0,30.18,SSE,168,4.9,8.1,2,0.00,CLR,,0.00,WeatherDisplay:10.37,2013-08-26 21:00:00,
2013-08-26 17:01:00,89.9,-9.6,30.18,SSE,155,2.6,8.1,2,0.00,CLR,,0.00,WeatherDisplay:10.37,2013-08-26 21:01:00,
2013-08-26 17:03:00,89.1,-10.2,30.18,ESE,104,1.4,5.8,2,0.00,CLR,,0.00,WeatherDisplay:10.37,2013-08-26 21:03:00,
2013-08-26 17:04:00,89.2,-10.1,30.18,ESE,104,0.0,4.6,2,0.00,CLR,,0.00,WeatherDisplay:10.37,2013-08-26 21:04:00,
2013-08-26 17:05:00,89.4,-10.0,30.18,ESE,104,0.0,0.0,2,0.00,CLR,,0.00,WeatherDisplay:10.37,2013-08-26 21:05:00,
2013-08-26 17:06:00,90.0,-9.6,30.18,ESE,104,0.0,0.0,2,0.00,CLR,,0.00,WeatherDisplay:10.37,2013-08-26 21:06:00,
2013-08-26 17:08:00,90.0,-9.6,30.18,SE,134,1.9,5.8,2,0.00,CLR,,0.00,WeatherDisplay:10.37,2013-08-26 21:08:00,
2013-08-26 17:09:00,90.1,-9.5,30.18,ESE,112,1.6,6.6,2,0.00,CLR,,0.00,WeatherDisplay:10.37,2013-08-26 21:09:00,
2013-08-26 17:10:00,90.4,-9.3,30.18,SSE,151,4.9,6.9,2,0.00,CLR,,0.00,WeatherDisplay:10.37,2013-08-26 21:10:00,
2013-08-26 17:12:00,89.9,-9.6,30.18,SE,126,0.0,2.3,2,0.00,CLR,,0.00,WeatherDisplay:10.37,2013-08-26 21:12:00,
2013-08-26 17:13:00,90.5,-9.3,30.17,ENE,78,0.4,3.3,2,0.00,CLR,,0.00,WeatherDisplay:10.37,2013-08-26 21:13:00,
2013-08-26 17:15:00,89.5,-9.9,30.18,SE,130,5.0,9.2,2,0.00,CLR,,0.00,WeatherDisplay:10.37,2013-08-26 21:15:00,
2013-08-26 17:17:00,87.9,-10.9,30.17,East,82,3.9,5.8,2,0.00,CLR,,0.00,WeatherDisplay:10.37,2013-08-26 21:17:00,
2013-08-26 17:18:00,87.4,-11.2,30.17,East,99,3.6,6.9,2,0.00,CLR,,0.00,WeatherDisplay:10.37,2013-08-26 21:18:00,
2013-08-26 17:20:00,85.4,-12.5,30.17,ENE,66,3.6,6.9,2,0.00,CLR,,0.00,WeatherDisplay:10.37,2013-08-26 21:20:00,
2013-08-26 17:22:00,83.8,-13.6,30.17,ENE,59,0.0,3.5,2,0.00,CLR,,0.00,WeatherDisplay:10.37,2013-08-26 21:22:00,
2013-08-26 17:24:00,85.5,-12.5,30.17,ENE,59,0.0,0.0,2,0.00,CLR,,0.00,WeatherDisplay:10.37,2013-08-26 21:24:00,
2013-08-26 17:25:00,86.6,-11.8,30.18,ENE,59,0.0,0.0,2,0.00,CLR,,0.00,WeatherDisplay:10.37,2013-08-26 21:25:00,
2013-08-26 17:26:00,86.6,-11.8,30.17,ENE,59,0.0,0.0,2,0.00,CLR,,0.00,WeatherDisplay:10.37,2013-08-26 21:26:00,
2013-08-26 17:27:00,87.4,-11.2,30.17,ENE,59,0.0,0.0,2,0.00,CLR,,0.00,WeatherDisplay:10.37,2013-08-26 21:27:00,
2013-08-26 17:29:00,87.5,-11.2,30.17,SE,134,5.0,6.9,2,0.00,CLR,,0.00,WeatherDisplay:10.37,2013-08-26 21:29:00,
2013-08-26 17:30:00,86.8,-11.6,30.17,SE,134,0.1,5.8,2,0.00,CLR,,0.00,WeatherDisplay:10.37,2013-08-26 21:30:00,
2013-08-26 17:31:00,85.5,-12.5,30.17,SE,134,0.0,0.0,2,0.00,CLR,,0.00,WeatherDisplay:10.37,2013-08-26 21:31:00,
2013-08-26 17:32:00,86.2,-12.0,30.17,SE,134,0.0,0.0,2,0.00,CLR,,0.00,WeatherDisplay:10.37,2013-08-26 21:32:00,
2013-08-26 17:34:00,86.6,-11.8,30.17,SSE,154,0.6,3.2,2,0.00,CLR,,0.00,WeatherDisplay:10.37,2013-08-26 21:34:00,
2013-08-26 17:35:00,87.3,-11.3,30.17,East,85,0.9,3.5,2,0.00,CLR,,0.00,WeatherDisplay:10.37,2013-08-26 21:35:00,
2013-08-26 17:36:00,86.5,-11.8,30.17,ESE,109,3.3,5.8,2,0.00,CLR,,0.00,WeatherDisplay:10.37,2013-08-26 21:36:00,
2013-08-26 17:37:00,85.1,-12.7,30.17,ENE,69,0.0,0.0,2,0.00,CLR,,0.00,WeatherDisplay:10.37,2013-08-26 21:37:00,
2013-08-26 17:39:00,85.5,-12.5,30.17,ENE,69,0.0,0.0,2,0.00,CLR,,0.00,WeatherDisplay:10.37,2013-08-26 21:39:00,
2013-08-26 17:40:00,88.0,-10.9,30.17,ENE,69,0.0,0.0,2,0.00,CLR,,0.00,WeatherDisplay:10.37,2013-08-26 21:40:00,
2013-08-26 17:41:00,88.1,-10.8,30.17,ENE,69,0.0,0.0,2,0.00,CLR,,0.00,WeatherDisplay:10.37,2013-08-26 21:41:00,
2013-08-26 17:43:00,88.7,-10.4,30.17,ENE,69,0.0,0.0,2,0.00,CLR,,0.00,WeatherDisplay:10.37,2013-08-26 21:43:00,
2013-08-26 17:44:00,89.2,-10.1,30.17,SE,141,4.9,5.8,2,0.00,CLR,,0.00,WeatherDisplay:10.37,2013-08-26 21:44:00,
2013-08-26 17:45:00,89.4,-10.0,30.17,East,99,4.4,6.9,2,0.00,CLR,,0.00,WeatherDisplay:10.37,2013-08-26 21:45:00,
2013-08-26 17:46:00,89.1,-10.2,30.17,ESE,119,2.6,5.8,2,0.00,CLR,,0.00,WeatherDisplay:10.37,2013-08-26 21:46:00,
2013-08-26 17:48:00,88.1,-10.8,30.17,ESE,119,0.0,0.0,2,0.00,CLR,,0.00,WeatherDisplay:10.37,2013-08-26 21:48:00,
2013-08-26 17:49:00,88.5,-10.5,30.17,ESE,123,4.1,4.6,2,0.00,CLR,,0.00,WeatherDisplay:10.37,2013-08-26 21:49:00,
2013-08-26 17:51:00,88.0,-10.9,30.17,ESE,104,1.1,4.6,2,0.00,CLR,,0.00,WeatherDisplay:10.37,2013-08-26 21:51:00,
2013-08-26 17:53:00,86.6,-11.8,30.17,ESE,104,0.0,0.0,2,0.00,CLR,,0.00,WeatherDisplay:10.37,2013-08-26 21:53:00,
2013-08-26 17:55:00,87.3,-11.3,30.17,ESE,104,0.0,0.0,2,0.00,CLR,,0.00,WeatherDisplay:10.37,2013-08-26 21:55:00,
2013-08-26 17:56:00,87.2,-11.4,30.17,ESE,104,0.0,0.0,2,0.00,CLR,,0.00,WeatherDisplay:10.37,2013-08-26 21:56:00,
2013-08-26 17:58:00,86.1,-12.1,30.17,ESE,110,0.7,3.5,2,0.00,CLR,,0.00,WeatherDisplay:10.37,2013-08-26 21:58:00,
2013-08-26 18:00:00,85.2,-12.7,30.17,ESE,110,0.0,0.0,2,0.00,CLR,,0.00,WeatherDisplay:10.37,2013-08-26 22:00:00,
2013-08-26 18:01:00,82.7,-14.3,30.17,ESE,106,1.1,5.8,2,0.00,CLR,,0.00,WeatherDisplay:10.37,2013-08-26 22:01:00,
2013-08-26 18:03:00,82.1,-14.6,30.16,East,85,0.3,6.2,2,0.00,CLR,,0.00,WeatherDisplay:10.37,2013-08-26 22:03:00,
2013-08-26 18:05:00,80.9,-15.4,30.16,East,85,4.5,6.9,2,0.00,CLR,,0.00,WeatherDisplay:10.37,2013-08-26 22:05:00,
2013-08-26 18:06:00,82.0,-14.7,30.16,East,99,0.0,5.8,2,0.00,CLR,,0.00,WeatherDisplay:10.37,2013-08-26 22:06:00,
2013-08-26 18:08:00,80.9,-15.4,30.16,SE,137,3.1,6.9,2,0.00,CLR,,0.00,WeatherDisplay:10.37,2013-08-26 22:08:00,
2013-08-26 18:09:00,82.4,-14.4,30.16,SE,137,0.0,5.8,2,0.00,CLR,,0.00,WeatherDisplay:10.37,2013-08-26 22:09:00,
2013-08-26 18:10:00,81.9,-14.8,30.16,East,90,2.4,5.7,2,0.00,CLR,,0.00,WeatherDisplay:10.37,2013-08-26 22:10:00,
2013-08-26 18:11:00,80.5,-15.7,30.16,NE,47,2.1,6.9,2,0.00,CLR,,0.00,WeatherDisplay:10.37,2013-08-26 22:11:00,
2013-08-26 18:12:00,81.9,-14.8,30.16,NE,52,2.5,6.9,2,0.00,CLR,,0.00,WeatherDisplay:10.37,2013-08-26 22:12:00,
2013-08-26 18:13:00,81.1,-15.3,30.16,ESE,107,3.2,6.4,2,0.00,CLR,,0.00,WeatherDisplay:10.37,2013-08-26 22:13:00,
2013-08-26 18:14:00,80.4,-15.7,30.16,ENE,65,3.4,6.9,2,0.00,CLR,,0.00,WeatherDisplay:10.37,2013-08-26 22:14:00,
2013-08-26 18:15:00,81.5,-15.0,30.16,ENE,62,1.0,5.8,2,0.00,CLR,,0.00,WeatherDisplay:10.37,2013-08-26 22:15:00,
2013-08-26 18:16:00,81.4,-15.1,30.16,ESE,112,0.6,5.0,2,0.00,CLR,,0.00,WeatherDisplay:10.37,2013-08-26 22:16:00,
2013-08-26 18:18:00,81.5,-15.0,30.16,East,80,0.2,3.5,2,0.00,CLR,,0.00,WeatherDisplay:10.37,2013-08-26 22:18:00,
2013-08-26 18:19:00,80.9,-15.4,30.16,East,99,3.0,5.7,2,0.00,CLR,,0.00,WeatherDisplay:10.37,2013-08-26 22:19:00,
2013-08-26 18:20:00,80.4,-15.7,30.16,East,80,4.1,8.1,2,0.00,CLR,,0.00,WeatherDisplay:10.37,2013-08-26 22:20:00,
2013-08-26 18:22:00,80.8,-15.5,30.16,East,80,0.0,0.0,2,0.00,CLR,,0.00,WeatherDisplay:10.37,2013-08-26 22:22:00,
2013-08-26 18:23:00,81.4,-15.1,30.16,ENE,61,0.0,2.7,2,0.00,CLR,,0.00,WeatherDisplay:10.37,2013-08-26 22:23:00,
2013-08-26 18:24:00,80.8,-15.5,30.16,ESE,119,1.7,5.8,2,0.00,CLR,,0.00,WeatherDisplay:10.37,2013-08-26 22:24:00,
2013-08-26 18:25:00,81.4,-15.1,30.16,East,93,0.6,4.6,2,0.00,CLR,,0.00,WeatherDisplay:10.37,2013-08-26 22:25:00,
2013-08-26 18:27:00,81.7,-14.9,30.16,ESE,119,2.5,5.1,2,0.00,CLR,,0.00,WeatherDisplay:10.37,2013-08-26 22:27:00,
2013-08-26 18:28:00,80.4,-15.7,30.16,ESE,117,5.0,6.9,2,0.00,CLR,,0.00,WeatherDisplay:10.37,2013-08-26 22:28:00,
2013-08-26 18:29:00,81.7,-14.9,30.16,ENE,78,2.3,6.1,2,0.00,CLR,,0.00,WeatherDisplay:10.37,2013-08-26 22:29:00,
2013-08-26 18:30:00,80.3,-15.8,30.16,East,95,5.1,6.7,2,0.00,CLR,,0.00,WeatherDisplay:10.37,2013-08-26 22:30:00,
2013-08-26 18:32:00,80.4,-15.7,30.16,ESE,104,0.0,3.5,2,0.00,CLR,,0.00,WeatherDisplay:10.37,2013-08-26 22:32:00,
2013-08-26 18:33:00,81.2,-15.2,30.16,ESE,104,0.0,3.5,2,0.00,CLR,,0.00,WeatherDisplay:10.37,2013-08-26 22:33:00,
2013-08-26 18:34:00,82.0,-14.7,30.16,ESE,104,0.0,0.0,2,0.00,CLR,,0.00,WeatherDisplay:10.37,2013-08-26 22:34:00,
2013-08-26 18:36:00,81.9,-14.8,30.15,ESE,104,0.0,0.0,2,0.00,CLR,,0.00,WeatherDisplay:10.37,2013-08-26 22:36:00,
2013-08-26 18:37:00,82.5,-14.4,30.16,ESE,104,0.0,0.0,2,0.00,CLR,,0.00,WeatherDisplay:10.37,2013-08-26 22:37:00,
2013-08-26 18:39:00,83.5,-13.7,30.15,ESE,104,0.0,0.0,2,0.00,CLR,,0.00,WeatherDisplay:10.37,2013-08-26 22:39:00,
2013-08-26 18:40:00,83.0,-14.1,30.15,NNE,14,0.0,0.0,2,0.00,CLR,,0.00,WeatherDisplay:10.37,2013-08-26 22:40:00,
2013-08-26 18:41:00,82.4,-14.4,30.15,ENE,71,1.2,5.8,2,0.00,CLR,,0.00,WeatherDisplay:10.37,2013-08-26 22:41:00,
2013-08-26 18:43:00,82.6,-14.3,30.15,East,97,2.6,5.8,2,0.00,CLR,,0.00,WeatherDisplay:10.37,2013-08-26 22:43:00,
2013-08-26 18:44:00,81.3,-15.2,30.15,ESE,119,4.0,5.8,2,0.00,CLR,,0.00,WeatherDisplay:10.37,2013-08-26 22:44:00,
2013-08-26 18:45:00,81.8,-14.8,30.15,ESE,106,0.9,5.8,2,0.00,CLR,,0.00,WeatherDisplay:10.37,2013-08-26 22:45:00,
2013-08-26 18:46:00,81.5,-15.0,30.15,ENE,64,0.2,4.6,2,0.00,CLR,,0.00,WeatherDisplay:10.37,2013-08-26 22:46:00,
2013-08-26 18:48:00,81.3,-15.2,30.16,East,83,0.8,6.2,2,0.00,CLR,,0.00,WeatherDisplay:10.37,2013-08-26 22:48:00,
2013-08-26 18:49:00,81.2,-15.2,30.15,ESE,103,2.2,5.8,2,0.00,CLR,,0.00,WeatherDisplay:10.37,2013-08-26 22:49:00,
2013-08-26 18:50:00,80.0,-16.0,30.15,East,95,1.4,5.8,2,0.00,CLR,,0.00,WeatherDisplay:10.37,2013-08-26 22:50:00,
2013-08-26 18:51:00,80.4,-15.7,30.15,East,95,0.0,0.0,2,0.00,CLR,,0.00,WeatherDisplay:10.37,2013-08-26 22:51:00,
2013-08-26 18:53:00,80.1,-15.9,30.15,East,95,0.0,0.0,2,0.00,CLR,,0.00,WeatherDisplay:10.37,2013-08-26 22:53:00,
2013-08-26 18:54:00,81.2,-15.2,30.15,East,95,0.0,0.0,2,0.00,CLR,,0.00,WeatherDisplay:10.37,2013-08-26 22:54:00,
2013-08-26 18:55:00,80.5,-15.7,30.15,East,95,0.0,0.0,2,0.00,CLR,,0.00,WeatherDisplay:10.37,2013-08-26 22:55:00,
2013-08-26 18:56:00,80.6,-15.6,30.15,East,95,0.0,0.0,2,0.00,CLR,,0.00,WeatherDisplay:10.37,2013-08-26 22:56:00,
2013-08-26 18:57:00,81.3,-15.2,30.15,East,95,0.0,0.0,2,0.00,CLR,,0.00,WeatherDisplay:10.37,2013-08-26 22:57:00,
2013-08-26 18:58:00,80.4,-15.7,30.15,East,95,0.0,0.0,2,0.00,CLR,,0.00,WeatherDisplay:10.37,2013-08-26 22:58:00,
2013-08-26 18:59:00,80.9,-15.4,30.15,East,95,0.0,0.0,2,0.00,CLR,,0.00,WeatherDisplay:10.37,2013-08-26 22:59:00,
2013-08-26 19:00:00,80.3,-15.8,30.15,East,95,0.0,0.0,2,0.00,CLR,,0.00,WeatherDisplay:10.37,2013-08-26 23:00:00,
2013-08-26 19:01:00,80.6,-15.6,30.15,East,95,0.0,0.0,2,0.00,CLR,,0.00,WeatherDisplay:10.37,2013-08-26 23:01:00,
2013-08-26 19:02:00,81.0,-15.3,30.16,East,95,0.0,0.0,2,0.00,CLR,,0.00,WeatherDisplay:10.37,2013-08-26 23:02:00,
2013-08-26 19:03:00,80.5,-15.7,30.15,East,95,0.4,0.0,2,0.00,CLR,,0.00,WeatherDisplay:10.37,2013-08-26 23:03:00,
2013-08-26 19:04:00,79.4,-16.4,30.15,East,95,0.0,3.5,2,0.00,CLR,,0.00,WeatherDisplay:10.37,2013-08-26 23:04:00,
2013-08-26 19:05:00,79.9,-16.1,30.15,East,95,0.0,0.0,2,0.00,CLR,,0.00,WeatherDisplay:10.37,2013-08-26 23:05:00,
2013-08-26 19:06:00,80.4,-15.7,30.15,East,95,0.0,0.0,2,0.00,CLR,,0.00,WeatherDisplay:10.37,2013-08-26 23:06:00,
2013-08-26 19:08:00,80.3,-15.8,30.15,East,95,0.0,0.0,2,0.00,CLR,,0.00,WeatherDisplay:10.37,2013-08-26 23:08:00,
2013-08-26 19:09:00,79.7,-16.2,30.15,East,95,0.0,0.0,2,0.00,CLR,,0.00,WeatherDisplay:10.37,2013-08-26 23:09:00,
2013-08-26 19:10:00,79.3,-16.4,30.15,ENE,78,1.3,0.0,2,0.00,CLR,,0.00,WeatherDisplay:10.37,2013-08-26 23:10:00,
2013-08-26 19:11:00,79.0,-16.6,30.15,ENE,78,0.3,5.8,2,0.00,CLR,,0.00,WeatherDisplay:10.37,2013-08-26 23:11:00,
2013-08-26 19:13:00,80.2,-15.9,30.15,ENE,78,0.0,0.0,2,0.00,CLR,,0.00,WeatherDisplay:10.37,2013-08-26 23:13:00,
2013-08-26 19:14:00,78.4,-17.0,30.15,North,10,0.0,0.0,2,0.00,CLR,,0.00,WeatherDisplay:10.37,2013-08-26 23:14:00,
2013-08-26 19:16:00,79.4,-16.4,30.15,North,10,0.0,0.0,2,0.00,CLR,,0.00,WeatherDisplay:10.37,2013-08-26 23:16:00,
2013-08-26 19:18:00,77.7,-17.5,30.15,North,10,0.0,0.0,2,0.00,CLR,,0.00,WeatherDisplay:10.37,2013-08-26 23:18:00,
2013-08-26 19:19:00,77.8,-17.4,30.15,North,10,0.0,0.0,2,0.00,CLR,,0.00,WeatherDisplay:10.37,2013-08-26 23:19:00,
2013-08-26 19:21:00,79.0,-16.6,30.16,North,10,0.0,0.0,2,0.00,CLR,,0.00,WeatherDisplay:10.37,2013-08-26 23:21:00,
2013-08-26 19:23:00,78.4,-17.0,30.15,North,10,0.0,0.0,2,0.00,CLR,,0.00,WeatherDisplay:10.37,2013-08-26 23:23:00,
2013-08-26 19:24:00,78.5,-17.0,30.15,North,10,0.0,0.0,2,0.00,CLR,,0.00,WeatherDisplay:10.37,2013-08-26 23:24:00,
2013-08-26 19:25:00,78.7,-16.8,30.15,North,10,0.0,0.0,2,0.00,CLR,,0.00,WeatherDisplay:10.37,2013-08-26 23:25:00,
2013-08-26 19:26:00,78.3,-17.1,30.15,North,10,0.0,0.0,2,0.00,CLR,,0.00,WeatherDisplay:10.37,2013-08-26 23:26:00,
2013-08-26 19:28:00,78.3,-17.1,30.15,North,10,0.0,0.0,2,0.00,CLR,,0.00,WeatherDisplay:10.37,2013-08-26 23:28:00,
2013-08-26 19:29:00,78.5,-17.0,30.15,North,10,0.0,0.0,2,0.00,CLR,,0.00,WeatherDisplay:10.37,2013-08-26 23:29:00,
2013-08-26 19:30:00,78.0,-17.3,30.15,ENE,62,0.3,2.3,2,0.00,CLR,,0.00,WeatherDisplay:10.37,2013-08-26 23:30:00,
2013-08-26 19:31:00,77.8,-17.4,30.15,ENE,62,0.0,0.0,2,0.00,CLR,,0.00,WeatherDisplay:10.37,2013-08-26 23:31:00,
2013-08-26 19:32:00,77.1,-17.9,30.15,East,90,0.7,3.5,2,0.00,CLR,,0.00,WeatherDisplay:10.37,2013-08-26 23:32:00,
2013-08-26 19:33:00,76.8,-18.1,30.15,ENE,65,0.0,4.6,2,0.00,CLR,,0.00,WeatherDisplay:10.37,2013-08-26 23:33:00,
2013-08-26 19:34:00,77.9,-17.3,30.15,ENE,65,0.0,0.0,2,0.00,CLR,,0.00,WeatherDisplay:10.37,2013-08-26 23:34:00,
2013-08-26 19:35:00,76.5,-18.2,30.15,ENE,65,0.0,0.0,2,0.00,CLR,,0.00,WeatherDisplay:10.37,2013-08-26 23:35:00,
2013-08-26 19:36:00,76.8,-18.1,30.15,ENE,65,0.0,0.0,2,0.00,CLR,,0.00,WeatherDisplay:10.37,2013-08-26 23:36:00,
2013-08-26 19:38:00,76.6,-18.2,30.15,ENE,65,0.0,0.0,2,0.00,CLR,,0.00,WeatherDisplay:10.37,2013-08-26 23:38:00,
2013-08-26 19:39:00,76.7,-18.1,30.15,ENE,65,0.0,0.0,2,0.00,CLR,,0.00,WeatherDisplay:10.37,2013-08-26 23:39:00,
2013-08-26 19:40:00,77.3,-17.7,30.15,ENE,65,0.0,0.0,2,0.00,CLR,,0.00,WeatherDisplay:10.37,2013-08-26 23:40:00,
2013-08-26 19:41:00,76.3,-18.4,30.15,ENE,65,0.0,0.0,2,0.00,CLR,,0.00,WeatherDisplay:10.37,2013-08-26 23:41:00,
2013-08-26 19:44:00,76.6,-18.2,30.15,ENE,65,0.0,0.0,2,0.00,CLR,,0.00,WeatherDisplay:10.37,2013-08-26 23:44:00,
2013-08-26 19:45:00,76.3,-18.4,30.15,ENE,65,0.0,0.0,2,0.00,CLR,,0.00,WeatherDisplay:10.37,2013-08-26 23:45:00,
2013-08-26 19:47:00,76.3,-18.4,30.15,ENE,65,0.0,0.0,2,0.00,CLR,,0.00,WeatherDisplay:10.37,2013-08-26 23:47:00,
2013-08-26 19:49:00,76.3,-18.4,30.15,ENE,65,0.0,0.0,2,0.00,CLR,,0.00,WeatherDisplay:10.37,2013-08-26 23:49:00,
2013-08-26 19:50:00,75.9,-18.6,30.15,ENE,65,0.0,0.0,2,0.00,CLR,,0.00,WeatherDisplay:10.37,2013-08-26 23:50:00,
2013-08-26 19:52:00,76.0,-18.6,30.15,ENE,65,0.0,0.0,2,0.00,CLR,,0.00,WeatherDisplay:10.37,2013-08-26 23:52:00,
2013-08-26 19:54:00,75.4,-19.0,30.15,ENE,65,0.0,0.0,2,0.00,CLR,,0.00,WeatherDisplay:10.37,2013-08-26 23:54:00,
2013-08-26 19:55:00,75.7,-18.8,30.15,ENE,65,0.0,0.0,2,0.00,CLR,,0.00,WeatherDisplay:10.37,2013-08-26 23:55:00,
2013-08-26 19:56:00,75.6,-18.8,30.15,ENE,65,0.0,0.0,2,0.00,CLR,,0.00,WeatherDisplay:10.37,2013-08-26 23:56:00,
2013-08-26 19:57:00,75.8,-18.7,30.15,ENE,65,0.0,0.0,2,0.00,CLR,,0.00,WeatherDisplay:10.37,2013-08-26 23:57:00,
2013-08-26 19:59:00,75.6,-18.8,30.15,ENE,65,0.0,0.0,2,0.00,CLR,,0.00,WeatherDisplay:10.37,2013-08-26 23:59:00,
2013-08-26 20:00:00,75.3,-19.0,30.15,ENE,65,0.0,0.0,2,0.00,CLR,,0.00,WeatherDisplay:10.37,2013-08-27 00:00:00,
2013-08-26 20:01:00,75.2,-19.1,30.15,ESE,113,0.7,0.0,2,0.00,CLR,,0.00,WeatherDisplay:10.37,2013-08-27 00:01:00,
2013-08-26 20:02:00,75.0,-19.2,30.15,ESE,113,0.0,0.0,2,0.00,CLR,,0.00,WeatherDisplay:10.37,2013-08-27 00:02:00,
2013-08-26 20:04:00,75.3,-19.0,30.15,ESE,113,0.0,0.0,2,0.00,CLR,,0.00,WeatherDisplay:10.37,2013-08-27 00:04:00,
2013-08-26 20:05:00,75.2,-19.1,30.15,ESE,113,0.0,0.0,2,0.00,CLR,,0.00,WeatherDisplay:10.37,2013-08-27 00:05:00,
2013-08-26 20:06:00,75.2,-19.1,30.15,ESE,113,0.0,0.0,2,0.00,CLR,,0.00,WeatherDisplay:10.37,2013-08-27 00:06:00,
2013-08-26 20:07:00,74.6,-19.5,30.15,ESE,113,0.2,0.0,2,0.00,CLR,,0.00,WeatherDisplay:10.37,2013-08-27 00:07:00,
2013-08-26 20:09:00,74.2,-19.7,30.15,NE,55,0.9,5.8,2,0.00,CLR,,0.00,WeatherDisplay:10.37,2013-08-27 00:09:00,
2013-08-26 20:10:00,74.4,-19.6,30.15,NE,55,0.0,0.0,2,0.00,CLR,,0.00,WeatherDisplay:10.37,2013-08-27 00:10:00,
2013-08-26 20:11:00,74.4,-19.6,30.15,NE,55,0.0,0.0,2,0.00,CLR,,0.00,WeatherDisplay:10.37,2013-08-27 00:11:00,
2013-08-26 20:13:00,74.2,-19.7,30.15,NE,55,0.0,0.0,2,0.00,CLR,,0.00,WeatherDisplay:10.37,2013-08-27 00:13:00,
2013-08-26 20:14:00,74.3,-19.7,30.15,NE,55,0.0,0.0,2,0.00,CLR,,0.00,WeatherDisplay:10.37,2013-08-27 00:14:00,
2013-08-26 20:15:00,74.2,-19.7,30.15,NE,55,0.0,0.0,2,0.00,CLR,,0.00,WeatherDisplay:10.37,2013-08-27 00:15:00,
2013-08-26 20:16:00,74.2,-19.7,30.15,NE,55,0.0,0.0,2,0.00,CLR,,0.00,WeatherDisplay:10.37,2013-08-27 00:16:00,
2013-08-26 20:18:00,74.2,-19.7,30.15,NE,55,0.0,0.0,2,0.00,CLR,,0.00,WeatherDisplay:10.37,2013-08-27 00:18:00,
2013-08-26 20:20:00,74.2,-19.7,30.15,NE,55,0.0,0.0,2,0.00,CLR,,0.00,WeatherDisplay:10.37,2013-08-27 00:20:00,
2013-08-26 20:21:00,74.2,-19.7,30.15,NE,55,0.0,0.0,2,0.00,CLR,,0.00,WeatherDisplay:10.37,2013-08-27 00:21:00,
2013-08-26 20:23:00,74.2,-19.7,30.15,NE,55,0.0,0.0,2,0.00,CLR,,0.00,WeatherDisplay:10.37,2013-08-27 00:23:00,
2013-08-26 20:25:00,74.2,-19.7,30.14,NE,55,0.0,0.0,2,0.00,CLR,,0.00,WeatherDisplay:10.37,2013-08-27 00:25:00,
2013-08-26 20:26:00,74.2,-19.7,30.15,NE,55,0.0,0.0,2,0.00,CLR,,0.00,WeatherDisplay:10.37,2013-08-27 00:26:00,
2013-08-26 20:27:00,74.1,-19.8,30.14,East,89,1.1,5.8,2,0.00,CLR,,0.00,WeatherDisplay:10.37,2013-08-27 00:27:00,
2013-08-26 20:28:00,74.1,-19.8,30.14,East,89,0.0,3.5,2,0.00,CLR,,0.00,WeatherDisplay:10.37,2013-08-27 00:28:00,
2013-08-26 20:30:00,74.1,-19.8,30.14,East,89,0.0,0.0,2,0.00,CLR,,0.00,WeatherDisplay:10.37,2013-08-27 00:30:00,
2013-08-26 20:31:00,74.1,-19.8,30.14,East,89,0.0,0.0,2,0.00,CLR,,0.00,WeatherDisplay:10.37,2013-08-27 00:31:00,
2013-08-26 20:32:00,74.1,-19.8,30.15,ESE,103,0.5,4.2,2,0.00,CLR,,0.00,WeatherDisplay:10.37,2013-08-27 00:32:00,
2013-08-26 20:33:00,74.1,-19.8,30.15,East,90,1.3,4.6,2,0.00,CLR,,0.00,WeatherDisplay:10.37,2013-08-27 00:33:00,
2013-08-26 20:35:00,74.0,-19.9,30.15,East,89,0.0,3.5,2,0.00,CLR,,0.00,WeatherDisplay:10.37,2013-08-27 00:35:00,
2013-08-26 20:36:00,73.9,-19.9,30.15,East,89,0.0,0.0,2,0.00,CLR,,0.00,WeatherDisplay:10.37,2013-08-27 00:36:00,
2013-08-26 20:37:00,73.8,-20.0,30.15,East,89,0.0,0.0,2,0.00,CLR,,0.00,WeatherDisplay:10.37,2013-08-27 00:37:00,
2013-08-26 20:38:00,73.8,-20.0,30.15,East,89,0.0,0.0,2,0.00,CLR,,0.00,WeatherDisplay:10.37,2013-08-27 00:38:00,
2013-08-26 20:41:00,73.8,-20.0,30.15,East,89,0.0,0.0,2,0.00,CLR,,0.00,WeatherDisplay:10.37,2013-08-27 00:41:00,
2013-08-26 20:43:00,73.8,-20.0,30.15,East,89,0.0,0.0,2,0.00,CLR,,0.00,WeatherDisplay:10.37,2013-08-27 00:43:00,
2013-08-26 20:44:00,73.7,-20.1,30.15,East,89,0.0,0.0,2,0.00,CLR,,0.00,WeatherDisplay:10.37,2013-08-27 00:44:00,
2013-08-26 20:46:00,73.8,-20.0,30.15,East,89,0.0,0.0,2,0.00,CLR,,0.00,WeatherDisplay:10.37,2013-08-27 00:46:00,
2013-08-26 20:48:00,73.3,-20.3,30.15,East,89,0.0,0.0,2,0.00,CLR,,0.00,WeatherDisplay:10.37,2013-08-27 00:48:00,
2013-08-26 20:49:00,73.5,-20.2,30.15,East,89,0.0,0.0,2,0.00,CLR,,0.00,WeatherDisplay:10.37,2013-08-27 00:49:00,
2013-08-26 20:51:00,73.1,-20.4,30.15,East,89,0.0,0.0,2,0.00,CLR,,0.00,WeatherDisplay:10.37,2013-08-27 00:51:00,
2013-08-26 20:52:00,73.0,-20.5,30.15,East,89,0.0,0.0,2,0.00,CLR,,0.00,WeatherDisplay:10.37,2013-08-27 00:52:00,
2013-08-26 20:53:00,72.9,-20.6,30.15,East,89,0.0,0.0,2,0.00,CLR,,0.00,WeatherDisplay:10.37,2013-08-27 00:53:00,
2013-08-26 20:54:00,72.9,-20.6,30.16,East,89,0.0,0.0,2,0.00,CLR,,0.00,WeatherDisplay:10.37,2013-08-27 00:54:00,
2013-08-26 20:57:00,72.5,-20.8,30.16,East,89,0.0,0.0,2,0.00,CLR,,0.00,WeatherDisplay:10.37,2013-08-27 00:57:00,
2013-08-26 20:58:00,72.5,-20.8,30.16,East,89,0.0,0.0,2,0.00,CLR,,0.00,WeatherDisplay:10.37,2013-08-27 00:58:00,
2013-08-26 20:59:00,72.4,-20.9,30.16,East,89,0.0,0.0,2,0.00,CLR,,0.00,WeatherDisplay:10.37,2013-08-27 00:59:00,
2013-08-26 21:02:00,72.3,-13.0,30.16,East,89,0.0,0.0,3,0.00,CLR,,0.00,WeatherDisplay:10.37,2013-08-27 01:02:00,
2013-08-26 21:03:00,72.0,-13.2,30.16,East,89,0.0,0.0,3,0.00,CLR,,0.00,WeatherDisplay:10.37,2013-08-27 01:03:00,
2013-08-26 21:04:00,71.9,-13.3,30.16,East,89,0.0,0.0,3,0.00,CLR,,0.00,WeatherDisplay:10.37,2013-08-27 01:04:00,
2013-08-26 21:07:00,71.8,-13.4,30.16,East,89,0.0,0.0,3,0.00,CLR,,0.00,WeatherDisplay:10.37,2013-08-27 01:07:00,
2013-08-26 21:08:00,71.8,-13.4,30.16,East,89,0.0,0.0,3,0.00,CLR,,0.00,WeatherDisplay:10.37,2013-08-27 01:08:00,
2013-08-26 21:09:00,71.7,-7.6,30.16,East,89,0.0,0.0,4,0.00,CLR,,0.00,WeatherDisplay:10.37,2013-08-27 01:09:00,
2013-08-26 21:12:00,71.6,-7.7,30.16,East,89,0.0,0.0,4,0.00,CLR,,0.00,WeatherDisplay:10.37,2013-08-27 01:12:00,
2013-08-26 21:13:00,71.5,-7.7,30.16,East,89,0.0,0.0,4,0.00,CLR,,0.00,WeatherDisplay:10.37,2013-08-27 01:13:00,
2013-08-26 21:14:00,71.6,-7.7,30.16,East,89,0.0,0.0,4,0.00,CLR,,0.00,WeatherDisplay:10.37,2013-08-27 01:14:00,
2013-08-26 21:15:00,71.5,-7.7,30.16,East,89,0.0,0.0,4,0.00,CLR,,0.00,WeatherDisplay:10.37,2013-08-27 01:15:00,
2013-08-26 21:17:00,71.4,-7.8,30.16,East,89,0.0,0.0,4,0.00,CLR,,0.00,WeatherDisplay:10.37,2013-08-27 01:17:00,
2013-08-26 21:18:00,71.5,-7.7,30.16,East,89,0.0,0.0,4,0.00,CLR,,0.00,WeatherDisplay:10.37,2013-08-27 01:18:00,
2013-08-26 21:19:00,71.6,-7.7,30.16,East,89,0.0,0.0,4,0.00,CLR,,0.00,WeatherDisplay:10.37,2013-08-27 01:19:00,
2013-08-26 21:20:00,71.4,-7.8,30.16,East,89,0.0,0.0,4,0.00,CLR,,0.00,WeatherDisplay:10.37,2013-08-27 01:20:00,
2013-08-26 21:22:00,71.5,-7.7,30.16,East,89,0.0,0.0,4,0.00,CLR,,0.00,WeatherDisplay:10.37,2013-08-27 01:22:00,
2013-08-26 21:23:00,71.5,-7.7,30.16,East,89,0.0,0.0,4,0.00,CLR,,0.00,WeatherDisplay:10.37,2013-08-27 01:23:00,
2013-08-26 21:24:00,71.2,-8.0,30.16,East,89,0.0,0.0,4,0.00,CLR,,0.00,WeatherDisplay:10.37,2013-08-27 01:24:00,
2013-08-26 21:25:00,71.3,-7.9,30.16,East,89,0.0,0.0,4,0.00,CLR,,0.00,WeatherDisplay:10.37,2013-08-27 01:25:00,
2013-08-26 21:27:00,71.2,-8.0,30.16,East,89,0.0,0.0,4,0.00,CLR,,0.00,WeatherDisplay:10.37,2013-08-27 01:27:00,
2013-08-26 21:28:00,71.2,-8.0,30.16,East,89,0.0,0.0,4,0.00,CLR,,0.00,WeatherDisplay:10.37,2013-08-27 01:28:00,
2013-08-26 21:29:00,71.0,-8.1,30.16,East,89,0.0,0.0,4,0.00,CLR,,0.00,WeatherDisplay:10.37,2013-08-27 01:29:00,
2013-08-26 21:30:00,71.0,-8.1,30.16,East,89,0.0,0.0,4,0.00,CLR,,0.00,WeatherDisplay:10.37,2013-08-27 01:30:00,
2013-08-26 21:33:00,70.9,-8.2,30.16,East,89,0.0,0.0,4,0.00,CLR,,0.00,WeatherDisplay:10.37,2013-08-27 01:33:00,
2013-08-26 21:34:00,70.7,-3.7,30.16,East,89,0.0,0.0,5,0.00,CLR,,0.00,WeatherDisplay:10.37,2013-08-27 01:34:00,
2013-08-26 21:35:00,71.0,-3.5,30.16,East,89,0.0,0.0,5,0.00,CLR,,0.00,WeatherDisplay:10.37,2013-08-27 01:35:00,
2013-08-26 21:38:00,71.0,-8.1,30.16,East,89,0.0,0.0,4,0.00,CLR,,0.00,WeatherDisplay:10.37,2013-08-27 01:38:00,
2013-08-26 21:39:00,71.3,-3.3,30.16,East,89,0.0,0.0,5,0.00,CLR,,0.00,WeatherDisplay:10.37,2013-08-27 01:39:00,
2013-08-26 21:40:00,70.8,-3.6,30.17,East,89,0.0,0.0,5,0.00,CLR,,0.00,WeatherDisplay:10.37,2013-08-27 01:40:00,
2013-08-26 21:43:00,71.2,-3.3,30.17,East,89,0.0,0.0,5,0.00,CLR,,0.00,WeatherDisplay:10.37,2013-08-27 01:43:00,
2013-08-26 21:44:00,71.1,-8.0,30.17,East,89,0.0,0.0,4,0.00,CLR,,0.00,WeatherDisplay:10.37,2013-08-27 01:44:00,
2013-08-26 21:45:00,71.1,-8.0,30.17,East,89,0.0,0.0,4,0.00,CLR,,0.00,WeatherDisplay:10.37,2013-08-27 01:45:00,
2013-08-26 21:48:00,71.5,-7.7,30.17,East,89,0.0,0.0,4,0.00,CLR,,0.00,WeatherDisplay:10.37,2013-08-27 01:48:00,
2013-08-26 21:49:00,71.4,-7.8,30.17,East,89,0.0,0.0,4,0.00,CLR,,0.00,WeatherDisplay:10.37,2013-08-27 01:49:00,
2013-08-26 21:50:00,71.9,-13.3,30.17,East,89,0.0,0.0,3,0.00,CLR,,0.00,WeatherDisplay:10.37,2013-08-27 01:50:00,
2013-08-26 21:51:00,71.9,-13.3,30.17,East,89,0.0,0.0,3,0.00,CLR,,0.00,WeatherDisplay:10.37,2013-08-27 01:51:00,
2013-08-26 21:53:00,72.4,-20.9,30.17,East,89,0.0,0.0,2,0.00,CLR,,0.00,WeatherDisplay:10.37,2013-08-27 01:53:00,
2013-08-26 21:54:00,72.9,-20.6,30.17,East,89,0.0,0.0,2,0.00,CLR,,0.00,WeatherDisplay:10.37,2013-08-27 01:54:00,
2013-08-26 21:55:00,73.0,-20.5,30.17,East,89,0.0,0.0,2,0.00,CLR,,0.00,WeatherDisplay:10.37,2013-08-27 01:55:00,
2013-08-26 21:56:00,73.4,-20.3,30.17,East,89,0.0,0.0,2,0.00,CLR,,0.00,WeatherDisplay:10.37,2013-08-27 01:56:00,
2013-08-26 21:59:00,73.9,-19.9,30.17,East,89,0.0,0.0,2,0.00,CLR,,0.00,WeatherDisplay:10.37,2013-08-27 01:59:00,
2013-08-26 22:00:00,74.0,-19.9,30.17,East,89,0.0,0.0,2,0.00,CLR,,0.00,WeatherDisplay:10.37,2013-08-27 02:00:00,
2013-08-26 22:01:00,74.1,-19.8,30.17,East,89,0.0,0.0,2,0.00,CLR,,0.00,WeatherDisplay:10.37,2013-08-27 02:01:00,
2013-08-26 22:04:00,74.1,-19.8,30.17,East,89,0.0,0.0,2,0.00,CLR,,0.00,WeatherDisplay:10.37,2013-08-27 02:04:00,
2013-08-26 22:05:00,74.2,-19.7,30.17,East,89,0.0,0.0,2,0.00,CLR,,0.00,WeatherDisplay:10.37,2013-08-27 02:05:00,
2013-08-26 22:06:00,74.1,-19.8,30.17,East,89,0.0,0.0,2,0.00,CLR,,0.00,WeatherDisplay:10.37,2013-08-27 02:06:00,
2013-08-26 22:09:00,74.1,-19.8,30.17,East,89,0.0,0.0,2,0.00,CLR,,0.00,WeatherDisplay:10.37,2013-08-27 02:09:00,
2013-08-26 22:10:00,74.1,-19.8,30.17,East,89,0.0,0.0,2,0.00,CLR,,0.00,WeatherDisplay:10.37,2013-08-27 02:10:00,
2013-08-26 22:11:00,74.2,-19.7,30.17,East,89,0.0,0.0,2,0.00,CLR,,0.00,WeatherDisplay:10.37,2013-08-27 02:11:00,
2013-08-26 22:14:00,74.2,-19.7,30.17,East,89,0.0,0.0,2,0.00,CLR,,0.00,WeatherDisplay:10.37,2013-08-27 02:14:00,
2013-08-26 22:15:00,74.2,-19.7,30.17,East,89,0.0,0.0,2,0.00,CLR,,0.00,WeatherDisplay:10.37,2013-08-27 02:15:00,
2013-08-26 22:16:00,74.2,-19.7,30.17,East,89,0.0,0.0,2,0.00,CLR,,0.00,WeatherDisplay:10.37,2013-08-27 02:16:00,
2013-08-26 22:17:00,74.2,-19.7,30.17,East,89,0.0,0.0,2,0.00,CLR,,0.00,WeatherDisplay:10.37,2013-08-27 02:17:00,
2013-08-26 22:19:00,74.2,-19.7,30.17,East,89,0.0,0.0,2,0.00,CLR,,0.00,WeatherDisplay:10.37,2013-08-27 02:19:00,
2013-08-26 22:20:00,74.2,-19.7,30.17,East,89,0.0,0.0,2,0.00,CLR,,0.00,WeatherDisplay:10.37,2013-08-27 02:20:00,
2013-08-26 22:21:00,74.2,-19.7,30.17,East,89,0.0,0.0,2,0.00,CLR,,0.00,WeatherDisplay:10.37,2013-08-27 02:21:00,
2013-08-26 22:22:00,74.2,-19.7,30.17,East,89,0.0,0.0,2,0.00,CLR,,0.00,WeatherDisplay:10.37,2013-08-27 02:22:00,
2013-08-26 22:24:00,74.4,-19.6,30.17,East,89,0.0,0.0,2,0.00,CLR,,0.00,WeatherDisplay:10.37,2013-08-27 02:24:00,
2013-08-26 22:25:00,74.3,-19.7,30.17,East,89,0.0,0.0,2,0.00,CLR,,0.00,WeatherDisplay:10.37,2013-08-27 02:25:00,
2013-08-26 22:26:00,74.2,-19.7,30.17,East,89,0.0,0.0,2,0.00,CLR,,0.00,WeatherDisplay:10.37,2013-08-27 02:26:00,
2013-08-26 22:27:00,74.2,-19.7,30.17,East,89,0.0,0.0,2,0.00,CLR,,0.00,WeatherDisplay:10.37,2013-08-27 02:27:00,
2013-08-26 22:28:00,74.3,-19.7,30.17,East,89,0.0,0.0,2,0.00,CLR,,0.00,WeatherDisplay:10.37,2013-08-27 02:28:00,
2013-08-26 22:30:00,74.2,-19.7,30.17,East,89,0.0,0.0,2,0.00,CLR,,0.00,WeatherDisplay:10.37,2013-08-27 02:30:00,
2013-08-26 22:32:00,74.2,-19.7,30.17,East,89,0.0,0.0,2,0.00,CLR,,0.00,WeatherDisplay:10.37,2013-08-27 02:32:00,
2013-08-26 22:33:00,74.2,-19.7,30.17,East,89,0.0,0.0,2,0.00,CLR,,0.00,WeatherDisplay:10.37,2013-08-27 02:33:00,
2013-08-26 22:35:00,74.1,-19.8,30.17,East,89,0.0,0.0,2,0.00,CLR,,0.00,WeatherDisplay:10.37,2013-08-27 02:35:00,
2013-08-26 22:37:00,73.8,-20.0,30.17,East,89,0.0,0.0,2,0.00,CLR,,0.00,WeatherDisplay:10.37,2013-08-27 02:37:00,
2013-08-26 22:39:00,73.8,-20.0,30.17,East,89,0.0,0.0,2,0.00,CLR,,0.00,WeatherDisplay:10.37,2013-08-27 02:39:00,
2013-08-26 22:40:00,73.7,-20.1,30.17,East,89,0.0,0.0,2,0.00,CLR,,0.00,WeatherDisplay:10.37,2013-08-27 02:40:00,
2013-08-26 22:42:00,73.4,-20.3,30.17,East,89,0.0,0.0,2,0.00,CLR,,0.00,WeatherDisplay:10.37,2013-08-27 02:42:00,
2013-08-26 22:44:00,72.8,-20.6,30.17,East,89,0.0,0.0,2,0.00,CLR,,0.00,WeatherDisplay:10.37,2013-08-27 02:44:00,
2013-08-26 22:45:00,72.4,-20.9,30.17,East,89,0.0,0.0,2,0.00,CLR,,0.00,WeatherDisplay:10.37,2013-08-27 02:45:00,
2013-08-26 22:47:00,72.0,-21.2,30.17,East,89,0.0,0.0,2,0.00,CLR,,0.00,WeatherDisplay:10.37,2013-08-27 02:47:00,
2013-08-26 22:48:00,71.7,-21.4,30.17,East,89,0.0,0.0,2,0.00,CLR,,0.00,WeatherDisplay:10.37,2013-08-27 02:48:00,
2013-08-26 22:49:00,71.8,-21.3,30.17,East,89,0.0,0.0,2,0.00,CLR,,0.00,WeatherDisplay:10.37,2013-08-27 02:49:00,
2013-08-26 22:50:00,71.6,-21.4,30.17,East,89,0.0,0.0,2,0.00,CLR,,0.00,WeatherDisplay:10.37,2013-08-27 02:50:00,
2013-08-26 22:51:00,71.7,-21.4,30.17,East,89,0.0,0.0,2,0.00,CLR,,0.00,WeatherDisplay:10.37,2013-08-27 02:51:00,
2013-08-26 22:52:00,71.4,-21.5,30.17,East,89,0.0,0.0,2,0.00,CLR,,0.00,WeatherDisplay:10.37,2013-08-27 02:52:00,
2013-08-26 22:53:00,71.4,-21.5,30.17,East,89,0.0,0.0,2,0.00,CLR,,0.00,WeatherDisplay:10.37,2013-08-27 02:53:00,
2013-08-26 22:54:00,71.7,-21.4,30.17,East,89,0.0,0.0,2,0.00,CLR,,0.00,WeatherDisplay:10.37,2013-08-27 02:54:00,
2013-08-26 22:56:00,71.8,-21.3,30.17,East,89,0.0,0.0,2,0.00,CLR,,0.00,WeatherDisplay:10.37,2013-08-27 02:56:00,
2013-08-26 22:57:00,72.0,-21.2,30.17,East,89,0.0,0.0,2,0.00,CLR,,0.00,WeatherDisplay:10.37,2013-08-27 02:57:00,
2013-08-26 22:58:00,72.4,-20.9,30.17,East,89,0.0,0.0,2,0.00,CLR,,0.00,WeatherDisplay:10.37,2013-08-27 02:58:00,
2013-08-26 22:59:00,72.1,-21.1,30.17,East,89,0.0,0.0,2,0.00,CLR,,0.00,WeatherDisplay:10.37,2013-08-27 02:59:00,
2013-08-26 23:00:00,72.6,-20.8,30.17,East,89,0.0,0.0,2,0.00,CLR,,0.00,WeatherDisplay:10.37,2013-08-27 03:00:00,
2013-08-26 23:01:00,72.8,-20.6,30.17,East,89,0.0,0.0,2,0.00,CLR,,0.00,WeatherDisplay:10.37,2013-08-27 03:01:00,
2013-08-26 23:02:00,72.8,-20.6,30.17,East,89,0.0,0.0,2,0.00,CLR,,0.00,WeatherDisplay:10.37,2013-08-27 03:02:00,
2013-08-26 23:03:00,72.8,-20.6,30.17,East,89,0.0,0.0,2,0.00,CLR,,0.00,WeatherDisplay:10.37,2013-08-27 03:03:00,
2013-08-26 23:04:00,73.2,-20.4,30.17,East,89,0.0,0.0,2,0.00,CLR,,0.00,WeatherDisplay:10.37,2013-08-27 03:04:00,
2013-08-26 23:06:00,73.2,-20.4,30.17,East,89,0.0,0.0,2,0.00,CLR,,0.00,WeatherDisplay:10.37,2013-08-27 03:06:00,
2013-08-26 23:08:00,72.6,-20.8,30.17,East,89,0.0,0.0,2,0.00,CLR,,0.00,WeatherDisplay:10.37,2013-08-27 03:08:00,
2013-08-26 23:09:00,72.7,-20.7,30.17,East,89,0.0,0.0,2,0.00,CLR,,0.00,WeatherDisplay:10.37,2013-08-27 03:09:00,
2013-08-26 23:11:00,72.6,-20.8,30.17,East,89,0.0,0.0,2,0.00,CLR,,0.00,WeatherDisplay:10.37,2013-08-27 03:11:00,
2013-08-26 23:12:00,72.7,-20.7,30.17,East,89,0.0,0.0,2,0.00,CLR,,0.00,WeatherDisplay:10.37,2013-08-27 03:12:00,
2013-08-26 23:13:00,73.0,-20.5,30.17,East,89,0.0,0.0,2,0.00,CLR,,0.00,WeatherDisplay:10.37,2013-08-27 03:13:00,
2013-08-26 23:14:00,72.9,-20.6,30.17,East,89,0.0,0.0,2,0.00,CLR,,0.00,WeatherDisplay:10.37,2013-08-27 03:14:00,
2013-08-26 23:16:00,73.0,-20.5,30.16,East,89,0.0,0.0,2,0.00,CLR,,0.00,WeatherDisplay:10.37,2013-08-27 03:16:00,
2013-08-26 23:17:00,73.1,-20.4,30.16,East,89,0.0,0.0,2,0.00,CLR,,0.00,WeatherDisplay:10.37,2013-08-27 03:17:00,
2013-08-26 23:18:00,73.4,-20.3,30.16,East,89,0.0,0.0,2,0.00,CLR,,0.00,WeatherDisplay:10.37,2013-08-27 03:18:00,
2013-08-26 23:19:00,73.1,-20.4,30.16,East,89,0.0,0.0,2,0.00,CLR,,0.00,WeatherDisplay:10.37,2013-08-27 03:19:00,
2013-08-26 23:21:00,73.6,-20.1,30.16,East,89,0.0,0.0,2,0.00,CLR,,0.00,WeatherDisplay:10.37,2013-08-27 03:21:00,
2013-08-26 23:22:00,73.3,-20.3,30.16,East,89,0.0,0.0,2,0.00,CLR,,0.00,WeatherDisplay:10.37,2013-08-27 03:22:00,
2013-08-26 23:23:00,73.5,-20.2,30.16,East,89,0.0,0.0,2,0.00,CLR,,0.00,WeatherDisplay:10.37,2013-08-27 03:23:00,
2013-08-26 23:24:00,73.6,-20.1,30.16,East,89,0.0,0.0,2,0.00,CLR,,0.00,WeatherDisplay:10.37,2013-08-27 03:24:00,
2013-08-26 23:25:00,73.7,-20.1,30.16,East,89,0.0,0.0,2,0.00,CLR,,0.00,WeatherDisplay:10.37,2013-08-27 03:25:00,
2013-08-26 23:26:00,73.5,-20.2,30.16,East,89,0.0,0.0,2,0.00,CLR,,0.00,WeatherDisplay:10.37,2013-08-27 03:26:00,
2013-08-26 23:27:00,73.5,-20.2,30.16,East,89,0.0,0.0,2,0.00,CLR,,0.00,WeatherDisplay:10.37,2013-08-27 03:27:00,
2013-08-26 23:28:00,73.3,-20.3,30.16,East,89,0.0,0.0,2,0.00,CLR,,0.00,WeatherDisplay:10.37,2013-08-27 03:28:00,
2013-08-26 23:30:00,73.8,-20.0,30.16,East,89,0.0,0.0,2,0.00,CLR,,0.00,WeatherDisplay:10.37,2013-08-27 03:30:00,
2013-08-26 23:32:00,73.4,-20.3,30.16,East,89,0.0,0.0,2,0.00,CLR,,0.00,WeatherDisplay:10.37,2013-08-27 03:32:00,
2013-08-26 23:33:00,73.4,-20.3,30.16,East,89,0.0,0.0,2,0.00,CLR,,0.00,WeatherDisplay:10.37,2013-08-27 03:33:00,
2013-08-26 23:35:00,73.3,-20.3,30.16,East,89,0.0,0.0,2,0.00,CLR,,0.00,WeatherDisplay:10.37,2013-08-27 03:35:00,
2013-08-26 23:36:00,73.2,-20.4,30.16,East,89,0.0,0.0,2,0.00,CLR,,0.00,WeatherDisplay:10.37,2013-08-27 03:36:00,
2013-08-26 23:37:00,73.5,-20.2,30.16,East,89,0.0,0.0,2,0.00,CLR,,0.00,WeatherDisplay:10.37,2013-08-27 03:37:00,
2013-08-26 23:38:00,73.7,-20.1,30.16,East,89,0.0,0.0,2,0.00,CLR,,0.00,WeatherDisplay:10.37,2013-08-27 03:38:00,
2013-08-26 23:41:00,73.8,-20.0,30.16,East,89,0.0,0.0,2,0.00,CLR,,0.00,WeatherDisplay:10.37,2013-08-27 03:41:00,
2013-08-26 23:42:00,73.4,-20.3,30.15,East,89,0.0,0.0,2,0.00,CLR,,0.00,WeatherDisplay:10.37,2013-08-27 03:42:00,
2013-08-26 23:43:00,73.4,-20.3,30.15,East,89,0.0,0.0,2,0.00,CLR,,0.00,WeatherDisplay:10.37,2013-08-27 03:43:00,
2013-08-26 23:46:00,73.0,-20.5,30.15,East,89,0.0,0.0,2,0.00,CLR,,0.00,WeatherDisplay:10.37,2013-08-27 03:46:00,
2013-08-26 23:47:00,72.4,-20.9,30.15,East,89,0.0,0.0,2,0.00,CLR,,0.00,WeatherDisplay:10.37,2013-08-27 03:47:00,
2013-08-26 23:48:00,72.0,-21.2,30.15,East,89,0.0,0.0,2,0.00,CLR,,0.00,WeatherDisplay:10.37,2013-08-27 03:48:00,
2013-08-26 23:51:00,71.3,-21.6,30.15,East,89,0.0,0.0,2,0.00,CLR,,0.00,WeatherDisplay:10.37,2013-08-27 03:51:00,
2013-08-26 23:53:00,71.2,-21.7,30.15,East,89,0.0,0.0,2,0.00,CLR,,0.00,WeatherDisplay:10.37,2013-08-27 03:53:00,
2013-08-26 23:56:00,71.5,-21.5,30.15,East,89,0.0,0.0,2,0.00,CLR,,0.00,WeatherDisplay:10.37,2013-08-27 03:56:00,
2013-08-26 23:57:00,71.4,-21.5,30.15,East,89,0.0,0.0,2,0.00,CLR,,0.00,WeatherDisplay:10.37,2013-08-27 03:57:00,
2013-08-26 23:58:00,71.5,-21.5,30.15,East,89,0.0,0.0,2,0.00,CLR,,0.00,WeatherDisplay:10.37,2013-08-27 03:58:00,